Time,TemperatureF,DewpointF,PressureIn,WindDirection,WindDirectionDegrees,WindSpeedMPH,WindSpeedGustMPH,Humidity,HourlyPrecipIn,Conditions,Clouds,dailyrainin,SoftwareType,DateUTC
2013-08-29 07:21:00,56.5,53.9,29.89,SSE,158,0.0,0.0,91,0.00,,---,0.00,VWS V14.00,2013-08-29 12:21:00,
2013-08-29 07:22:00,55.9,53.3,29.92,SSE,155,0.0,0.0,91,0.00,,---,0.00,VWS V14.00,2013-08-29 12:22:00,
2013-08-29 07:26:00,55.9,53.3,29.92,SSE,155,0.0,0.0,91,0.00,,---,0.00,VWS V14.00,2013-08-29 12:26:00,
2013-08-29 07:27:00,55.9,53.3,29.92,SSE,155,0.0,0.0,91,0.00,,---,0.00,VWS V14.00,2013-08-29 12:27:00,
2013-08-29 07:31:00,55.7,53.1,29.92,SSE,155,0.0,0.0,91,0.00,,---,0.00,VWS V14.00,2013-08-29 12:31:00,
2013-08-29 07:32:00,55.7,53.1,29.92,SSE,155,0.0,0.0,91,0.00,,---,0.00,VWS V14.00,2013-08-29 12:32:00,
2013-08-29 07:36:00,55.7,53.1,29.92,SSE,155,0.0,0.0,91,0.00,,---,0.00,VWS V14.00,2013-08-29 12:36:00,
2013-08-29 07:37:00,55.6,53.0,29.92,SSE,155,0.0,0.0,91,0.00,,---,0.00,VWS V14.00,2013-08-29 12:37:00,
2013-08-29 07:41:00,55.7,53.1,29.92,SSE,155,0.0,0.0,91,0.00,,---,0.00,VWS V14.00,2013-08-29 12:41:00,
2013-08-29 07:42:00,55.7,53.1,29.92,SSE,155,0.0,0.0,91,0.00,,---,0.00,VWS V14.00,2013-08-29 12:42:00,
2013-08-29 07:47:00,55.9,53.6,29.92,SSE,155,0.0,0.0,92,0.00,,---,0.00,VWS V14.00,2013-08-29 12:47:00,
2013-08-29 07:48:00,55.9,53.6,29.92,SSE,155,0.0,0.0,92,0.00,,---,0.00,VWS V14.00,2013-08-29 12:48:00,
2013-08-29 07:52:00,56.0,53.7,29.92,SSE,155,0.0,0.0,92,0.00,,---,0.00,VWS V14.00,2013-08-29 12:52:00,
2013-08-29 07:53:00,56.0,53.7,29.92,SSE,155,0.0,0.0,92,0.00,,---,0.00,VWS V14.00,2013-08-29 12:53:00,
2013-08-29 07:54:00,56.2,53.9,29.92,SSE,155,0.0,0.0,92,0.00,,---,0.00,VWS V14.00,2013-08-29 12:54:00,
2013-08-29 07:57:00,56.5,54.2,29.92,SSE,155,0.0,0.0,92,0.00,,---,0.00,VWS V14.00,2013-08-29 12:57:00,
2013-08-29 07:58:00,56.5,54.2,29.92,SSE,155,0.0,0.0,92,0.00,,---,0.00,VWS V14.00,2013-08-29 12:58:00,
2013-08-29 08:02:00,56.7,54.7,29.92,SSE,155,0.0,0.0,93,0.00,,---,0.00,VWS V14.00,2013-08-29 13:02:00,
2013-08-29 08:03:00,57.0,55.0,29.92,SSE,155,0.0,0.0,93,0.00,,---,0.00,VWS V14.00,2013-08-29 13:03:00,
2013-08-29 08:06:00,57.2,55.2,29.92,SSE,155,0.0,0.0,93,0.00,,---,0.00,VWS V14.00,2013-08-29 13:06:00,
2013-08-29 08:07:00,57.3,55.3,29.92,SSE,155,0.0,0.0,93,0.00,,---,0.00,VWS V14.00,2013-08-29 13:07:00,
2013-08-29 08:08:00,57.5,55.5,29.92,SSE,155,0.0,0.0,93,0.00,,---,0.00,VWS V14.00,2013-08-29 13:08:00,
2013-08-29 08:11:00,58.3,56.3,29.92,SSE,155,0.0,0.0,93,0.00,,---,0.00,VWS V14.00,2013-08-29 13:11:00,
2013-08-29 08:12:00,58.6,56.6,29.92,SSE,155,0.0,0.0,93,0.00,,---,0.00,VWS V14.00,2013-08-29 13:12:00,
2013-08-29 08:13:00,58.6,56.6,29.92,SSE,155,0.0,0.0,93,0.00,,---,0.00,VWS V14.00,2013-08-29 13:13:00,
2013-08-29 08:14:00,58.7,56.7,29.92,SSE,155,0.0,0.0,93,0.00,,---,0.00,VWS V14.00,2013-08-29 13:14:00,
2013-08-29 08:17:00,59.5,57.5,29.92,SSE,155,0.0,0.0,93,0.00,,---,0.00,VWS V14.00,2013-08-29 13:17:00,
2013-08-29 08:18:00,59.6,57.6,29.92,SSE,155,0.0,0.0,93,0.00,,---,0.00,VWS V14.00,2013-08-29 13:18:00,
2013-08-29 08:19:00,59.8,57.8,29.92,SSE,155,0.0,0.0,93,0.00,,---,0.00,VWS V14.00,2013-08-29 13:19:00,
2013-08-29 08:22:00,60.2,58.2,29.92,SSE,155,0.0,0.0,93,0.00,,---,0.00,VWS V14.00,2013-08-29 13:22:00,
2013-08-29 08:23:00,60.2,58.2,29.92,SSE,155,0.0,0.0,93,0.00,,---,0.00,VWS V14.00,2013-08-29 13:23:00,
2013-08-29 08:24:00,60.4,58.4,29.92,SSE,155,0.0,0.0,93,0.00,,---,0.00,VWS V14.00,2013-08-29 13:24:00,
2013-08-29 08:27:00,60.4,58.4,29.92,SSE,155,0.0,0.0,93,0.00,,---,0.00,VWS V14.00,2013-08-29 13:27:00,
2013-08-29 08:28:00,60.4,58.4,29.92,SSE,155,0.0,0.0,93,0.00,,---,0.00,VWS V14.00,2013-08-29 13:28:00,
2013-08-29 08:29:00,60.5,58.5,29.91,SSE,155,0.0,0.0,93,0.00,,---,0.00,VWS V14.00,2013-08-29 13:29:00,
2013-08-29 08:32:00,61.0,59.0,29.91,SSE,155,0.0,0.0,93,0.00,,---,0.00,VWS V14.00,2013-08-29 13:32:00,
2013-08-29 08:33:00,61.0,59.0,29.91,SSE,155,0.0,0.0,93,0.00,,---,0.00,VWS V14.00,2013-08-29 13:33:00,
2013-08-29 08:34:00,61.5,59.5,29.91,SSE,155,0.0,0.0,93,0.00,,---,0.00,VWS V14.00,2013-08-29 13:34:00,
2013-08-29 08:35:00,61.5,59.5,29.91,SSE,155,0.0,0.0,93,0.00,,---,0.00,VWS V14.00,2013-08-29 13:35:00,
2013-08-29 08:37:00,61.8,59.8,29.91,SSE,155,0.0,0.0,93,0.00,,---,0.00,VWS V14.00,2013-08-29 13:37:00,
2013-08-29 08:38:00,61.8,59.8,29.91,SSE,155,0.0,0.0,93,0.00,,---,0.00,VWS V14.00,2013-08-29 13:38:00,
2013-08-29 08:39:00,61.8,59.5,29.91,SSE,155,0.0,0.0,92,0.00,,---,0.00,VWS V14.00,2013-08-29 13:39:00,
2013-08-29 08:40:00,62.0,59.7,29.91,SSE,155,0.0,0.0,92,0.00,,---,0.00,VWS V14.00,2013-08-29 13:40:00,
2013-08-29 08:42:00,62.3,60.0,29.91,SSE,155,0.0,0.0,92,0.00,,---,0.00,VWS V14.00,2013-08-29 13:42:00,
2013-08-29 08:43:00,62.4,60.0,29.91,SSE,155,0.0,0.0,92,0.00,,---,0.00,VWS V14.00,2013-08-29 13:43:00,
2013-08-29 08:44:00,62.6,60.2,29.91,SSE,155,0.0,0.0,92,0.00,,---,0.00,VWS V14.00,2013-08-29 13:44:00,
2013-08-29 08:45:00,62.9,60.2,29.91,SSE,155,0.0,0.0,91,0.00,,---,0.00,VWS V14.00,2013-08-29 13:45:00,
2013-08-29 08:47:00,63.1,60.4,29.91,SSE,155,0.0,0.0,91,0.00,,---,0.00,VWS V14.00,2013-08-29 13:47:00,
2013-08-29 08:48:00,63.2,60.5,29.91,SSE,155,0.0,0.0,91,0.00,,---,0.00,VWS V14.00,2013-08-29 13:48:00,
2013-08-29 08:49:00,63.2,60.2,29.91,SSE,155,0.0,0.0,90,0.00,,---,0.00,VWS V14.00,2013-08-29 13:49:00,
2013-08-29 08:50:00,63.4,60.1,29.91,SSE,155,0.0,0.0,89,0.00,,---,0.00,VWS V14.00,2013-08-29 13:50:00,
2013-08-29 08:53:00,63.7,59.8,29.91,SSE,155,0.0,0.0,87,0.00,,---,0.00,VWS V14.00,2013-08-29 13:53:00,
2013-08-29 08:54:00,63.9,59.6,29.91,SSE,155,0.0,0.0,86,0.00,,---,0.00,VWS V14.00,2013-08-29 13:54:00,
2013-08-29 08:55:00,64.2,59.9,29.91,SSE,155,0.0,0.0,86,0.00,,---,0.00,VWS V14.00,2013-08-29 13:55:00,
2013-08-29 08:56:00,64.5,60.2,29.91,SSE,155,0.0,0.0,86,0.00,,---,0.00,VWS V14.00,2013-08-29 13:56:00,
2013-08-29 08:58:00,65.0,60.7,29.91,SSE,155,0.0,0.0,86,0.00,,---,0.00,VWS V14.00,2013-08-29 13:58:00,
2013-08-29 08:59:00,65.5,61.2,29.89,SSE,155,0.0,0.0,86,0.00,,---,0.00,VWS V14.00,2013-08-29 13:59:00,
2013-08-29 09:00:00,66.0,61.7,29.89,SSE,155,0.0,0.0,86,0.00,,---,0.00,VWS V14.00,2013-08-29 14:00:00,
2013-08-29 09:01:00,66.3,62.0,29.89,SSE,155,0.0,0.0,86,0.00,,---,0.00,VWS V14.00,2013-08-29 14:01:00,
2013-08-29 09:03:00,66.8,62.2,29.89,SSE,155,0.0,0.0,85,0.00,,---,0.00,VWS V14.00,2013-08-29 14:03:00,
2013-08-29 09:04:00,66.9,62.2,29.89,SSE,155,0.0,0.0,85,0.00,,---,0.00,VWS V14.00,2013-08-29 14:04:00,
2013-08-29 09:05:00,67.3,61.3,29.89,SSE,155,0.0,0.0,81,0.00,,---,0.00,VWS V14.00,2013-08-29 14:05:00,
2013-08-29 09:06:00,67.6,61.6,29.89,SSE,155,0.0,0.0,81,0.00,,---,0.00,VWS V14.00,2013-08-29 14:06:00,
2013-08-29 09:08:00,67.6,61.6,29.89,SSE,155,0.0,0.0,81,0.00,,---,0.00,VWS V14.00,2013-08-29 14:08:00,
2013-08-29 09:09:00,67.9,58.5,29.89,SSE,155,0.0,0.0,72,0.00,,---,0.00,VWS V14.00,2013-08-29 14:09:00,
2013-08-29 09:10:00,68.1,58.3,29.89,SSE,155,0.0,0.0,71,0.00,,---,0.00,VWS V14.00,2013-08-29 14:10:00,
2013-08-29 09:12:00,68.3,57.8,29.89,SSE,155,0.0,0.0,69,0.00,,---,0.00,VWS V14.00,2013-08-29 14:12:00,
2013-08-29 09:13:00,68.6,58.0,29.89,SSE,155,0.0,0.0,69,0.00,,---,0.00,VWS V14.00,2013-08-29 14:13:00,
2013-08-29 09:14:00,68.8,58.2,29.89,SSE,155,0.0,0.0,69,0.00,,---,0.00,VWS V14.00,2013-08-29 14:14:00,
2013-08-29 09:16:00,69.3,57.5,29.89,SSE,155,0.0,0.0,66,0.00,,---,0.00,VWS V14.00,2013-08-29 14:16:00,
2013-08-29 09:17:00,69.4,57.6,29.89,SSE,155,0.0,0.0,66,0.00,,---,0.00,VWS V14.00,2013-08-29 14:17:00,
2013-08-29 09:18:00,69.6,58.2,29.89,SSE,155,0.0,0.0,67,0.00,,---,0.00,VWS V14.00,2013-08-29 14:18:00,
2013-08-29 09:19:00,69.8,58.4,29.89,SSE,155,0.0,0.0,67,0.00,,---,0.00,VWS V14.00,2013-08-29 14:19:00,
2013-08-29 09:21:00,70.1,57.4,29.89,SSE,155,0.0,0.0,64,0.00,,---,0.00,VWS V14.00,2013-08-29 14:21:00,
2013-08-29 09:22:00,70.3,57.6,29.89,SSE,155,0.0,0.0,64,0.00,,---,0.00,VWS V14.00,2013-08-29 14:22:00,
2013-08-29 09:23:00,70.4,57.7,29.89,SSE,158,0.0,0.0,64,0.00,,---,0.00,VWS V14.00,2013-08-29 14:23:00,
2013-08-29 09:24:00,70.6,57.0,29.89,SSE,160,0.0,0.0,62,0.00,,---,0.00,VWS V14.00,2013-08-29 14:24:00,
2013-08-29 09:26:00,70.9,57.7,29.89,SSE,160,0.0,0.0,63,0.00,,---,0.00,VWS V14.00,2013-08-29 14:26:00,
2013-08-29 09:27:00,71.3,58.1,29.89,SSE,160,0.0,0.0,63,0.00,,---,0.00,VWS V14.00,2013-08-29 14:27:00,
2013-08-29 09:28:00,71.3,58.1,29.89,SSE,160,0.0,0.0,63,0.00,,---,0.00,VWS V14.00,2013-08-29 14:28:00,
2013-08-29 09:29:00,71.5,57.4,29.88,SSE,160,0.0,0.0,61,0.00,,---,0.00,VWS V14.00,2013-08-29 14:29:00,
2013-08-29 09:31:00,71.8,57.6,29.88,SSE,160,0.0,0.0,61,0.00,,---,0.00,VWS V14.00,2013-08-29 14:31:00,
2013-08-29 09:33:00,72.0,58.3,29.88,SSE,160,0.0,0.0,62,0.00,,---,0.00,VWS V14.00,2013-08-29 14:33:00,
2013-08-29 09:34:00,72.0,57.4,29.88,SSE,160,0.0,0.0,60,0.00,,---,0.00,VWS V14.00,2013-08-29 14:34:00,
2013-08-29 09:37:00,72.5,58.3,29.88,SSE,160,0.0,0.0,61,0.00,,---,0.00,VWS V14.00,2013-08-29 14:37:00,
2013-08-29 09:39:00,72.7,58.0,29.88,SSE,160,0.0,0.0,60,0.00,,---,0.00,VWS V14.00,2013-08-29 14:39:00,
2013-08-29 09:40:00,73.0,58.3,29.88,SSE,160,0.0,0.0,60,0.00,,---,0.00,VWS V14.00,2013-08-29 14:40:00,
2013-08-29 09:42:00,73.2,58.0,29.88,West,264,0.0,0.0,59,0.00,,---,0.00,VWS V14.00,2013-08-29 14:42:00,
2013-08-29 09:43:00,73.2,57.1,29.88,West,264,0.0,0.0,57,0.00,,---,0.00,VWS V14.00,2013-08-29 14:43:00,
2013-08-29 09:44:00,73.2,57.1,29.88,West,264,0.0,0.0,57,0.00,,---,0.00,VWS V14.00,2013-08-29 14:44:00,
2013-08-29 09:45:00,73.2,57.1,29.88,West,264,0.0,0.0,57,0.00,,---,0.00,VWS V14.00,2013-08-29 14:45:00,
2013-08-29 09:47:00,73.3,57.2,29.88,West,264,0.0,0.0,57,0.00,,---,0.00,VWS V14.00,2013-08-29 14:47:00,
2013-08-29 09:48:00,73.5,56.4,29.88,West,264,0.0,0.0,55,0.00,,---,0.00,VWS V14.00,2013-08-29 14:48:00,
2013-08-29 09:49:00,73.7,56.5,29.88,West,264,0.0,0.0,55,0.00,,---,0.00,VWS V14.00,2013-08-29 14:49:00,
2013-08-29 09:50:00,73.9,57.7,29.88,West,264,0.0,0.0,57,0.00,,---,0.00,VWS V14.00,2013-08-29 14:50:00,
2013-08-29 09:52:00,73.9,56.7,29.88,South,191,0.0,0.0,55,0.00,,---,0.00,VWS V14.00,2013-08-29 14:52:00,
2013-08-29 09:53:00,73.9,56.7,29.88,SE,141,0.0,0.0,55,0.00,,---,0.00,VWS V14.00,2013-08-29 14:53:00,
2013-08-29 09:54:00,74.0,57.8,29.88,SSE,147,0.0,0.0,57,0.00,,---,0.00,VWS V14.00,2013-08-29 14:54:00,
2013-08-29 09:55:00,74.0,56.8,29.88,WSW,258,0.0,0.0,55,0.00,,---,0.00,VWS V14.00,2013-08-29 14:55:00,
2013-08-29 09:57:00,74.0,57.8,29.88,SW,223,0.0,0.0,57,0.00,,---,0.00,VWS V14.00,2013-08-29 14:57:00,
2013-08-29 09:58:00,74.2,58.0,29.88,WNW,285,0.0,0.0,57,0.00,,---,0.00,VWS V14.00,2013-08-29 14:58:00,
2013-08-29 09:59:00,74.2,58.0,29.88,WNW,282,0.0,0.0,57,0.00,,---,0.00,VWS V14.00,2013-08-29 14:59:00,
2013-08-29 10:00:00,74.2,56.5,29.88,WNW,282,0.0,0.0,54,0.00,,---,0.00,VWS V14.00,2013-08-29 15:00:00,
2013-08-29 10:01:00,74.4,57.2,29.88,West,271,0.0,0.0,55,0.00,,---,0.00,VWS V14.00,2013-08-29 15:01:00,
2013-08-29 10:03:00,74.4,57.2,29.88,West,272,0.0,0.0,55,0.00,,---,0.00,VWS V14.00,2013-08-29 15:03:00,
2013-08-29 10:04:00,74.6,56.9,29.88,West,272,0.0,0.0,54,0.00,,---,0.00,VWS V14.00,2013-08-29 15:04:00,
2013-08-29 10:05:00,74.6,56.9,29.88,West,272,0.0,0.0,54,0.00,,---,0.00,VWS V14.00,2013-08-29 15:05:00,
2013-08-29 10:06:00,74.9,57.2,29.88,West,274,0.0,0.0,54,0.00,,---,0.00,VWS V14.00,2013-08-29 15:06:00,
2013-08-29 10:08:00,74.7,57.0,29.88,West,278,0.0,0.0,54,0.00,,---,0.00,VWS V14.00,2013-08-29 15:08:00,
2013-08-29 10:09:00,74.7,57.0,29.88,West,277,0.0,0.0,54,0.00,,---,0.00,VWS V14.00,2013-08-29 15:09:00,
2013-08-29 10:10:00,74.6,56.9,29.88,West,277,0.0,0.0,54,0.00,,---,0.00,VWS V14.00,2013-08-29 15:10:00,
2013-08-29 10:11:00,74.7,57.0,29.88,West,270,0.0,0.0,54,0.00,,---,0.00,VWS V14.00,2013-08-29 15:11:00,
2013-08-29 10:13:00,74.6,57.4,29.88,SW,236,0.0,0.0,55,0.00,,---,0.00,VWS V14.00,2013-08-29 15:13:00,
2013-08-29 10:14:00,74.6,56.9,29.89,West,261,0.0,0.0,54,0.00,,---,0.00,VWS V14.00,2013-08-29 15:14:00,
2013-08-29 10:16:00,74.4,57.7,29.89,West,263,0.0,0.0,56,0.00,,---,0.00,VWS V14.00,2013-08-29 15:16:00,
2013-08-29 10:18:00,74.7,58.5,29.89,WSW,253,0.0,0.0,57,0.00,,---,0.00,VWS V14.00,2013-08-29 15:18:00,
2013-08-29 10:19:00,74.7,57.0,29.89,WSW,251,0.0,0.0,54,0.00,,---,0.00,VWS V14.00,2013-08-29 15:19:00,
2013-08-29 10:21:00,74.6,57.4,29.89,West,265,0.0,0.0,55,0.00,,---,0.00,VWS V14.00,2013-08-29 15:21:00,
2013-08-29 10:23:00,74.6,56.9,29.89,West,268,0.0,0.0,54,0.00,,---,0.00,VWS V14.00,2013-08-29 15:23:00,
2013-08-29 10:24:00,74.9,57.2,29.89,SW,236,0.0,0.0,54,0.00,,---,0.00,VWS V14.00,2013-08-29 15:24:00,
2013-08-29 10:25:00,74.9,57.2,29.89,WSW,248,0.0,0.0,54,0.00,,---,0.00,VWS V14.00,2013-08-29 15:25:00,
2013-08-29 10:26:00,74.9,57.2,29.89,WSW,248,0.0,0.0,54,0.00,,---,0.00,VWS V14.00,2013-08-29 15:26:00,
2013-08-29 10:28:00,75.1,57.3,29.89,WSW,247,0.0,0.0,54,0.00,,---,0.00,VWS V14.00,2013-08-29 15:28:00,
2013-08-29 10:29:00,75.3,57.5,29.89,WSW,239,0.0,0.0,54,0.00,,---,0.00,VWS V14.00,2013-08-29 15:29:00,
2013-08-29 10:30:00,75.3,57.5,29.89,WSW,237,0.0,0.0,54,0.00,,---,0.00,VWS V14.00,2013-08-29 15:30:00,
2013-08-29 10:31:00,75.3,57.5,29.89,SW,233,0.0,0.0,54,0.00,,---,0.00,VWS V14.00,2013-08-29 15:31:00,
2013-08-29 10:32:00,75.3,57.5,29.89,SW,233,0.0,0.0,54,0.00,,---,0.00,VWS V14.00,2013-08-29 15:32:00,
2013-08-29 10:33:00,75.1,56.3,29.89,WSW,246,0.0,0.0,52,0.00,,---,0.00,VWS V14.00,2013-08-29 15:33:00,
2013-08-29 10:34:00,75.1,56.3,29.89,WSW,248,0.0,0.0,52,0.00,,---,0.00,VWS V14.00,2013-08-29 15:34:00,
2013-08-29 10:35:00,75.1,56.3,29.89,WSW,248,0.0,0.0,52,0.00,,---,0.00,VWS V14.00,2013-08-29 15:35:00,
2013-08-29 10:36:00,75.3,57.5,29.89,WSW,248,0.0,0.0,54,0.00,,---,0.00,VWS V14.00,2013-08-29 15:36:00,
2013-08-29 10:37:00,75.3,57.5,29.89,WSW,248,0.0,0.0,54,0.00,,---,0.00,VWS V14.00,2013-08-29 15:37:00,
2013-08-29 10:38:00,75.3,57.0,29.89,WSW,248,0.0,0.0,53,0.00,,---,0.00,VWS V14.00,2013-08-29 15:38:00,
2013-08-29 10:39:00,75.6,57.3,29.89,WSW,241,0.0,0.0,53,0.00,,---,0.00,VWS V14.00,2013-08-29 15:39:00,
2013-08-29 10:40:00,75.6,57.3,29.89,WSW,241,0.0,0.0,53,0.00,,---,0.00,VWS V14.00,2013-08-29 15:40:00,
2013-08-29 10:41:00,75.8,58.5,29.89,WSW,250,0.0,0.0,55,0.00,,---,0.00,VWS V14.00,2013-08-29 15:41:00,
2013-08-29 10:43:00,76.0,57.1,29.89,West,260,0.0,0.0,52,0.00,,---,0.00,VWS V14.00,2013-08-29 15:43:00,
2013-08-29 10:44:00,76.0,57.7,29.88,West,260,0.0,0.0,53,0.00,,---,0.00,VWS V14.00,2013-08-29 15:44:00,
2013-08-29 10:45:00,76.0,57.7,29.88,West,260,0.0,0.0,53,0.00,,---,0.00,VWS V14.00,2013-08-29 15:45:00,
2013-08-29 10:46:00,76.1,56.7,29.88,West,260,0.0,0.0,51,0.00,,---,0.00,VWS V14.00,2013-08-29 15:46:00,
2013-08-29 10:48:00,76.3,57.4,29.88,West,260,0.0,0.0,52,0.00,,---,0.00,VWS V14.00,2013-08-29 15:48:00,
2013-08-29 10:49:00,76.3,56.9,29.88,West,260,0.0,0.0,51,0.00,,---,0.00,VWS V14.00,2013-08-29 15:49:00,
2013-08-29 10:50:00,76.3,56.9,29.88,West,260,0.0,0.0,51,0.00,,---,0.00,VWS V14.00,2013-08-29 15:50:00,
2013-08-29 10:52:00,76.5,57.6,29.88,West,260,0.0,0.0,52,0.00,,---,0.00,VWS V14.00,2013-08-29 15:52:00,
2013-08-29 10:54:00,76.5,57.0,29.88,WSW,257,0.0,0.0,51,0.00,,---,0.00,VWS V14.00,2013-08-29 15:54:00,
2013-08-29 10:55:00,76.7,58.3,29.88,WSW,257,0.0,0.0,53,0.00,,---,0.00,VWS V14.00,2013-08-29 15:55:00,
2013-08-29 10:57:00,76.8,58.4,29.88,WSW,257,0.0,0.0,53,0.00,,---,0.00,VWS V14.00,2013-08-29 15:57:00,
2013-08-29 10:59:00,77.0,58.0,29.88,WSW,253,0.0,0.0,52,0.00,,---,0.00,VWS V14.00,2013-08-29 15:59:00,
2013-08-29 11:00:00,77.2,58.2,29.88,WSW,253,0.0,0.0,52,0.00,,---,0.00,VWS V14.00,2013-08-29 16:00:00,
2013-08-29 11:02:00,77.4,57.9,29.88,WSW,253,0.0,0.0,51,0.00,,---,0.00,VWS V14.00,2013-08-29 16:02:00,
2013-08-29 11:04:00,77.6,58.1,29.88,WSW,253,0.0,0.0,51,0.00,,---,0.00,VWS V14.00,2013-08-29 16:04:00,
2013-08-29 11:05:00,77.7,58.2,29.88,WSW,253,0.0,0.0,51,0.00,,---,0.00,VWS V14.00,2013-08-29 16:05:00,
2013-08-29 11:06:00,77.6,58.6,29.88,WSW,253,0.0,0.0,52,0.00,,---,0.00,VWS V14.00,2013-08-29 16:06:00,
2013-08-29 11:07:00,77.7,58.7,29.88,WSW,253,0.0,0.0,52,0.00,,---,0.00,VWS V14.00,2013-08-29 16:07:00,
2013-08-29 11:10:00,77.4,57.3,29.88,WSW,256,0.0,0.0,50,0.00,,---,0.00,VWS V14.00,2013-08-29 16:10:00,
2013-08-29 11:11:00,77.4,57.9,29.88,WSW,256,0.0,0.0,51,0.00,,---,0.00,VWS V14.00,2013-08-29 16:11:00,
2013-08-29 11:12:00,77.6,59.1,29.88,WSW,256,0.0,0.0,53,0.00,,---,0.00,VWS V14.00,2013-08-29 16:12:00,
2013-08-29 11:15:00,77.6,57.0,29.88,WSW,251,0.0,0.0,49,0.00,,---,0.00,VWS V14.00,2013-08-29 16:15:00,
2013-08-29 11:16:00,77.6,57.0,29.88,WSW,251,0.0,0.0,49,0.00,,---,0.00,VWS V14.00,2013-08-29 16:16:00,
2013-08-29 11:17:00,77.6,57.0,29.88,WSW,251,0.0,0.0,49,0.00,,---,0.00,VWS V14.00,2013-08-29 16:17:00,
2013-08-29 11:19:00,77.6,58.6,29.88,SSW,198,0.0,0.0,52,0.00,,---,0.00,VWS V14.00,2013-08-29 16:19:00,
2013-08-29 11:21:00,77.6,59.1,29.88,SSW,198,0.0,0.0,53,0.00,,---,0.00,VWS V14.00,2013-08-29 16:21:00,
2013-08-29 11:22:00,77.7,57.6,29.88,SSW,202,0.0,0.0,50,0.00,,---,0.00,VWS V14.00,2013-08-29 16:22:00,
2013-08-29 11:25:00,77.7,57.6,29.88,SW,215,0.0,0.0,50,0.00,,---,0.00,VWS V14.00,2013-08-29 16:25:00,
2013-08-29 11:26:00,77.9,57.8,29.88,SW,223,0.0,0.0,50,0.00,,---,0.00,VWS V14.00,2013-08-29 16:26:00,
2013-08-29 11:27:00,77.9,57.8,29.88,SW,223,0.0,0.0,50,0.00,,---,0.00,VWS V14.00,2013-08-29 16:27:00,
2013-08-29 11:28:00,77.9,58.3,29.88,SW,223,0.0,0.0,51,0.00,,---,0.00,VWS V14.00,2013-08-29 16:28:00,
2013-08-29 11:30:00,78.1,58.5,29.88,SW,223,0.0,0.0,51,0.00,,---,0.00,VWS V14.00,2013-08-29 16:30:00,
2013-08-29 11:31:00,78.1,58.0,29.88,SW,223,0.0,0.0,50,0.00,,---,0.00,VWS V14.00,2013-08-29 16:31:00,
2013-08-29 11:32:00,78.5,58.9,29.88,SW,223,0.0,0.0,51,0.00,,---,0.00,VWS V14.00,2013-08-29 16:32:00,
2013-08-29 11:33:00,78.5,58.9,29.88,SW,223,0.0,0.0,51,0.00,,---,0.00,VWS V14.00,2013-08-29 16:33:00,
2013-08-29 11:34:00,78.5,58.9,29.88,SW,223,0.0,0.0,51,0.00,,---,0.00,VWS V14.00,2013-08-29 16:34:00,
2013-08-29 11:35:00,78.5,58.3,29.88,SW,223,0.0,0.0,50,0.00,,---,0.00,VWS V14.00,2013-08-29 16:35:00,
2013-08-29 11:36:00,78.6,58.4,29.88,SW,223,0.0,0.0,50,0.00,,---,0.00,VWS V14.00,2013-08-29 16:36:00,
2013-08-29 11:37:00,78.5,57.2,29.88,SW,220,0.0,0.0,48,0.00,,---,0.00,VWS V14.00,2013-08-29 16:37:00,
2013-08-29 11:39:00,78.8,57.5,29.88,SW,220,0.0,0.0,48,0.00,,---,0.00,VWS V14.00,2013-08-29 16:39:00,
2013-08-29 11:40:00,78.6,57.9,29.88,SW,220,0.0,0.0,49,0.00,,---,0.00,VWS V14.00,2013-08-29 16:40:00,
2013-08-29 11:41:00,78.8,58.0,29.88,SW,220,0.0,0.0,49,0.00,,---,0.00,VWS V14.00,2013-08-29 16:41:00,
2013-08-29 11:42:00,78.8,57.5,29.88,SW,220,0.0,0.0,48,0.00,,---,0.00,VWS V14.00,2013-08-29 16:42:00,
2013-08-29 11:44:00,78.8,59.2,29.87,SW,220,0.0,0.0,51,0.00,,---,0.00,VWS V14.00,2013-08-29 16:44:00,
2013-08-29 11:45:00,78.5,57.2,29.87,SW,234,0.0,0.0,48,0.00,,---,0.00,VWS V14.00,2013-08-29 16:45:00,
2013-08-29 11:46:00,78.5,57.2,29.87,SW,236,0.0,0.0,48,0.00,,---,0.00,VWS V14.00,2013-08-29 16:46:00,
2013-08-29 11:47:00,78.6,57.9,29.87,SW,236,0.0,0.0,49,0.00,,---,0.00,VWS V14.00,2013-08-29 16:47:00,
2013-08-29 11:49:00,78.5,57.2,29.87,SW,236,0.0,0.0,48,0.00,,---,0.00,VWS V14.00,2013-08-29 16:49:00,
2013-08-29 11:50:00,78.5,57.2,29.87,SW,236,0.0,0.0,48,0.00,,---,0.00,VWS V14.00,2013-08-29 16:50:00,
2013-08-29 11:51:00,78.6,57.9,29.87,SW,236,0.0,0.0,49,0.00,,---,0.00,VWS V14.00,2013-08-29 16:51:00,
2013-08-29 11:52:00,78.6,57.3,29.87,SW,234,0.0,0.0,48,0.00,,---,0.00,VWS V14.00,2013-08-29 16:52:00,
2013-08-29 11:53:00,78.6,56.7,29.87,SSW,212,0.0,0.0,47,0.00,,---,0.00,VWS V14.00,2013-08-29 16:53:00,
2013-08-29 11:55:00,78.5,56.6,29.87,East,97,0.0,0.0,47,0.00,,---,0.00,VWS V14.00,2013-08-29 16:55:00,
2013-08-29 11:56:00,78.5,56.6,29.87,East,97,0.0,0.0,47,0.00,,---,0.00,VWS V14.00,2013-08-29 16:56:00,
2013-08-29 11:57:00,78.6,58.4,29.87,East,97,0.0,0.0,50,0.00,,---,0.00,VWS V14.00,2013-08-29 16:57:00,
2013-08-29 11:58:00,78.6,56.7,29.87,East,97,0.0,0.0,47,0.00,,---,0.00,VWS V14.00,2013-08-29 16:58:00,
2013-08-29 12:00:00,79.2,58.4,29.87,East,97,0.0,0.0,49,0.00,,---,0.00,VWS V14.00,2013-08-29 17:00:00,
2013-08-29 12:01:00,79.2,59.5,29.87,ESE,102,0.0,0.0,51,0.00,,---,0.00,VWS V14.00,2013-08-29 17:01:00,
2013-08-29 12:03:00,79.2,57.8,29.87,SSW,200,0.0,0.0,48,0.00,,---,0.00,VWS V14.00,2013-08-29 17:03:00,
2013-08-29 12:05:00,79.4,57.4,29.87,SSW,195,0.0,0.0,47,0.00,,---,0.00,VWS V14.00,2013-08-29 17:05:00,
2013-08-29 12:06:00,79.6,57.6,29.87,SSW,195,0.0,0.0,47,0.00,,---,0.00,VWS V14.00,2013-08-29 17:06:00,
2013-08-29 12:07:00,79.8,57.8,29.87,SSW,195,0.0,0.0,47,0.00,,---,0.00,VWS V14.00,2013-08-29 17:07:00,
2013-08-29 12:08:00,80.1,58.1,29.87,East,93,0.0,0.0,47,0.00,,---,0.00,VWS V14.00,2013-08-29 17:08:00,
2013-08-29 12:10:00,80.1,56.9,29.87,SE,127,2.0,6.0,45,0.00,,---,0.00,VWS V14.00,2013-08-29 17:10:00,
2013-08-29 12:11:00,80.1,56.9,29.87,SE,127,0.0,6.0,45,0.00,,---,0.00,VWS V14.00,2013-08-29 17:11:00,
2013-08-29 12:12:00,80.1,56.9,29.87,SE,127,3.0,6.0,45,0.00,,---,0.00,VWS V14.00,2013-08-29 17:12:00,
2013-08-29 12:13:00,80.1,57.5,29.88,SE,127,0.0,6.0,46,0.00,,---,0.00,VWS V14.00,2013-08-29 17:13:00,
2013-08-29 12:14:00,80.1,57.5,29.88,SE,127,0.0,6.0,46,0.00,,---,0.00,VWS V14.00,2013-08-29 17:14:00,
2013-08-29 12:15:00,80.5,57.8,29.88,SE,130,3.0,6.0,46,0.00,,---,0.00,VWS V14.00,2013-08-29 17:15:00,
2013-08-29 12:16:00,80.5,57.8,29.88,ESE,123,0.0,6.0,46,0.00,,---,0.00,VWS V14.00,2013-08-29 17:16:00,
2013-08-29 12:17:00,80.5,57.8,29.88,ESE,121,0.0,6.0,46,0.00,,---,0.00,VWS V14.00,2013-08-29 17:17:00,
2013-08-29 12:18:00,80.3,57.7,29.88,ESE,120,0.0,6.0,46,0.00,,---,0.00,VWS V14.00,2013-08-29 17:18:00,
2013-08-29 12:20:00,80.1,56.2,29.88,ESE,120,0.0,6.0,44,0.00,,---,0.00,VWS V14.00,2013-08-29 17:20:00,
2013-08-29 12:21:00,80.3,57.7,29.88,ESE,120,0.0,6.0,46,0.00,,---,0.00,VWS V14.00,2013-08-29 17:21:00,
2013-08-29 12:22:00,80.5,57.8,29.88,ESE,120,0.0,6.0,46,0.00,,---,0.00,VWS V14.00,2013-08-29 17:22:00,
2013-08-29 12:23:00,80.7,58.0,29.88,ESE,114,0.0,6.0,46,0.00,,---,0.00,VWS V14.00,2013-08-29 17:23:00,
2013-08-29 12:25:00,80.5,56.6,29.88,East,99,0.0,6.0,44,0.00,,---,0.00,VWS V14.00,2013-08-29 17:25:00,
2013-08-29 12:26:00,80.5,56.6,29.88,East,99,0.0,6.0,44,0.00,,---,0.00,VWS V14.00,2013-08-29 17:26:00,
2013-08-29 12:27:00,80.9,57.0,29.88,East,99,0.0,6.0,44,0.00,,---,0.00,VWS V14.00,2013-08-29 17:27:00,
2013-08-29 12:28:00,81.1,57.2,29.87,ENE,64,0.0,6.0,44,0.00,,---,0.00,VWS V14.00,2013-08-29 17:28:00,
2013-08-29 12:29:00,81.1,58.4,29.87,ENE,66,0.0,6.0,46,0.00,,---,0.00,VWS V14.00,2013-08-29 17:29:00,
2013-08-29 12:30:00,81.4,58.7,29.87,South,176,3.0,3.0,46,0.00,,---,0.00,VWS V14.00,2013-08-29 17:30:00,
2013-08-29 12:31:00,81.4,58.0,29.87,SE,133,2.0,8.0,45,0.00,,---,0.00,VWS V14.00,2013-08-29 17:31:00,
2013-08-29 12:32:00,81.2,57.2,29.87,SE,133,0.0,8.0,44,0.00,,---,0.00,VWS V14.00,2013-08-29 17:32:00,
2013-08-29 12:34:00,81.6,57.6,29.87,SE,133,0.0,8.0,44,0.00,,---,0.00,VWS V14.00,2013-08-29 17:34:00,
2013-08-29 12:36:00,81.4,56.8,29.87,SE,134,0.0,8.0,43,0.00,,---,0.00,VWS V14.00,2013-08-29 17:36:00,
2013-08-29 12:37:00,81.2,56.0,29.87,North,356,0.0,8.0,42,0.00,,---,0.00,VWS V14.00,2013-08-29 17:37:00,
2013-08-29 12:38:00,81.2,56.0,29.87,SW,224,0.0,8.0,42,0.00,,---,0.00,VWS V14.00,2013-08-29 17:38:00,
2013-08-29 12:39:00,81.2,56.0,29.87,South,172,6.0,8.0,42,0.00,,---,0.00,VWS V14.00,2013-08-29 17:39:00,
2013-08-29 12:41:00,81.1,56.5,29.87,South,188,0.0,8.0,43,0.00,,---,0.00,VWS V14.00,2013-08-29 17:41:00,
2013-08-29 12:42:00,81.2,58.5,29.87,SSW,192,0.0,8.0,46,0.00,,---,0.00,VWS V14.00,2013-08-29 17:42:00,
2013-08-29 12:44:00,81.1,55.9,29.88,ESE,117,1.0,11.0,42,0.00,,---,0.00,VWS V14.00,2013-08-29 17:44:00,
2013-08-29 12:46:00,80.7,56.2,29.88,SE,140,0.0,11.0,43,0.00,,---,0.00,VWS V14.00,2013-08-29 17:46:00,
2013-08-29 12:47:00,80.9,56.3,29.88,SE,140,0.0,11.0,43,0.00,,---,0.00,VWS V14.00,2013-08-29 17:47:00,
2013-08-29 12:49:00,81.1,59.0,29.88,SE,144,0.0,11.0,47,0.00,,---,0.00,VWS V14.00,2013-08-29 17:49:00,
2013-08-29 12:50:00,80.9,57.6,29.88,SE,144,0.0,11.0,45,0.00,,---,0.00,VWS V14.00,2013-08-29 17:50:00,
2013-08-29 12:51:00,81.1,56.5,29.88,South,178,0.0,11.0,43,0.00,,---,0.00,VWS V14.00,2013-08-29 17:51:00,
2013-08-29 12:52:00,81.1,57.2,29.88,South,179,0.0,11.0,44,0.00,,---,0.00,VWS V14.00,2013-08-29 17:52:00,
2013-08-29 12:54:00,80.9,57.0,29.88,SSW,193,0.0,11.0,44,0.00,,---,0.00,VWS V14.00,2013-08-29 17:54:00,
2013-08-29 12:55:00,80.9,57.6,29.88,SSW,212,0.0,11.0,45,0.00,,---,0.00,VWS V14.00,2013-08-29 17:55:00,
2013-08-29 12:56:00,80.9,57.6,29.88,SSW,210,0.0,11.0,45,0.00,,---,0.00,VWS V14.00,2013-08-29 17:56:00,
2013-08-29 12:57:00,80.9,56.3,29.88,SSW,210,0.0,11.0,43,0.00,,---,0.00,VWS V14.00,2013-08-29 17:57:00,
2013-08-29 12:59:00,80.9,58.2,29.86,ESE,106,0.0,0.0,46,0.00,,---,0.00,VWS V14.00,2013-08-29 17:59:00,
2013-08-29 13:00:00,80.9,58.2,29.86,ESE,120,4.0,4.0,46,0.00,,---,0.00,VWS V14.00,2013-08-29 18:00:00,
2013-08-29 13:01:00,80.9,58.2,29.86,SE,130,1.0,5.0,46,0.00,,---,0.00,VWS V14.00,2013-08-29 18:01:00,
2013-08-29 13:02:00,80.9,57.0,29.86,SE,136,3.0,7.0,44,0.00,,---,0.00,VWS V14.00,2013-08-29 18:02:00,
2013-08-29 13:04:00,81.2,57.9,29.86,South,191,0.0,7.0,45,0.00,,---,0.00,VWS V14.00,2013-08-29 18:04:00,
2013-08-29 13:05:00,81.2,57.9,29.86,ESE,120,0.0,7.0,45,0.00,,---,0.00,VWS V14.00,2013-08-29 18:05:00,
2013-08-29 13:06:00,81.4,58.0,29.86,SE,124,0.0,7.0,45,0.00,,---,0.00,VWS V14.00,2013-08-29 18:06:00,
2013-08-29 13:07:00,81.6,56.3,29.86,SE,124,8.0,12.0,42,0.00,,---,0.00,VWS V14.00,2013-08-29 18:07:00,
2013-08-29 13:08:00,81.2,56.6,29.86,East,100,0.0,12.0,43,0.00,,---,0.00,VWS V14.00,2013-08-29 18:08:00,
2013-08-29 13:10:00,81.2,57.2,29.86,ESE,120,0.0,12.0,44,0.00,,---,0.00,VWS V14.00,2013-08-29 18:10:00,
2013-08-29 13:11:00,81.2,57.2,29.86,SE,128,0.0,12.0,44,0.00,,---,0.00,VWS V14.00,2013-08-29 18:11:00,
2013-08-29 13:12:00,81.4,58.0,29.86,SE,128,0.0,12.0,45,0.00,,---,0.00,VWS V14.00,2013-08-29 18:12:00,
2013-08-29 13:13:00,81.6,58.2,29.86,SE,126,0.0,12.0,45,0.00,,---,0.00,VWS V14.00,2013-08-29 18:13:00,
2013-08-29 13:15:00,81.4,56.1,29.87,ESE,123,0.0,12.0,42,0.00,,---,0.00,VWS V14.00,2013-08-29 18:15:00,
2013-08-29 13:16:00,81.4,56.1,29.87,ESE,123,0.0,12.0,42,0.00,,---,0.00,VWS V14.00,2013-08-29 18:16:00,
2013-08-29 13:17:00,81.2,56.6,29.87,ESE,123,0.0,12.0,43,0.00,,---,0.00,VWS V14.00,2013-08-29 18:17:00,
2013-08-29 13:18:00,81.2,55.3,29.87,ESE,109,0.0,12.0,41,0.00,,---,0.00,VWS V14.00,2013-08-29 18:18:00,
2013-08-29 13:20:00,81.2,56.6,29.87,SE,124,0.0,12.0,43,0.00,,---,0.00,VWS V14.00,2013-08-29 18:20:00,
2013-08-29 13:21:00,81.2,56.6,29.87,ESE,123,0.0,12.0,43,0.00,,---,0.00,VWS V14.00,2013-08-29 18:21:00,
2013-08-29 13:22:00,81.2,55.3,29.87,ESE,120,0.0,12.0,41,0.00,,---,0.00,VWS V14.00,2013-08-29 18:22:00,
2013-08-29 13:23:00,81.4,55.5,29.87,ESE,121,0.0,12.0,41,0.00,,---,0.00,VWS V14.00,2013-08-29 18:23:00,
2013-08-29 13:25:00,81.6,57.0,29.87,SE,126,0.0,12.0,43,0.00,,---,0.00,VWS V14.00,2013-08-29 18:25:00,
2013-08-29 13:26:00,81.6,57.0,29.87,SE,134,0.0,12.0,43,0.00,,---,0.00,VWS V14.00,2013-08-29 18:26:00,
2013-08-29 13:27:00,81.2,56.0,29.87,SW,219,0.0,12.0,42,0.00,,---,0.00,VWS V14.00,2013-08-29 18:27:00,
2013-08-29 13:28:00,81.4,55.5,29.87,SW,216,0.0,12.0,41,0.00,,---,0.00,VWS V14.00,2013-08-29 18:28:00,
2013-08-29 13:30:00,81.4,56.1,29.87,SW,219,0.0,0.0,42,0.00,,---,0.00,VWS V14.00,2013-08-29 18:30:00,
2013-08-29 13:31:00,81.4,56.1,29.87,SSW,195,0.0,0.0,42,0.00,,---,0.00,VWS V14.00,2013-08-29 18:31:00,
2013-08-29 13:32:00,81.2,58.5,29.87,SW,220,0.0,0.0,46,0.00,,---,0.00,VWS V14.00,2013-08-29 18:32:00,
2013-08-29 13:33:00,81.4,59.8,29.87,SW,217,0.0,0.0,48,0.00,,---,0.00,VWS V14.00,2013-08-29 18:33:00,
2013-08-29 13:34:00,81.4,59.8,29.87,SW,217,0.0,0.0,48,0.00,,---,0.00,VWS V14.00,2013-08-29 18:34:00,
2013-08-29 13:36:00,81.6,56.3,29.87,SW,216,0.0,0.0,42,0.00,,---,0.00,VWS V14.00,2013-08-29 18:36:00,
2013-08-29 13:37:00,81.6,57.6,29.87,SW,216,0.0,0.0,44,0.00,,---,0.00,VWS V14.00,2013-08-29 18:37:00,
2013-08-29 13:38:00,81.8,57.8,29.87,SW,216,0.0,0.0,44,0.00,,---,0.00,VWS V14.00,2013-08-29 18:38:00,
2013-08-29 13:39:00,82.2,58.1,29.87,SW,216,0.0,0.0,44,0.00,,---,0.00,VWS V14.00,2013-08-29 18:39:00,
2013-08-29 13:41:00,82.6,57.9,29.87,SW,216,0.0,0.0,43,0.00,,---,0.00,VWS V14.00,2013-08-29 18:41:00,
2013-08-29 13:42:00,82.8,58.0,29.87,South,171,0.0,0.0,43,0.00,,---,0.00,VWS V14.00,2013-08-29 18:42:00,
2013-08-29 13:43:00,83.0,56.9,29.87,SE,128,0.0,0.0,41,0.00,,---,0.00,VWS V14.00,2013-08-29 18:43:00,
2013-08-29 13:44:00,83.2,57.1,29.85,SSE,167,0.0,0.0,41,0.00,,---,0.00,VWS V14.00,2013-08-29 18:44:00,
2013-08-29 13:45:00,83.0,57.6,29.85,SSE,155,0.0,7.0,42,0.00,,---,0.00,VWS V14.00,2013-08-29 18:45:00,
2013-08-29 13:46:00,83.0,57.6,29.85,SSE,155,0.0,7.0,42,0.00,,---,0.00,VWS V14.00,2013-08-29 18:46:00,
2013-08-29 13:47:00,83.2,58.4,29.85,SSE,162,0.0,7.0,43,0.00,,---,0.00,VWS V14.00,2013-08-29 18:47:00,
2013-08-29 13:48:00,83.0,56.2,29.85,South,189,1.0,7.0,40,0.00,,---,0.00,VWS V14.00,2013-08-29 18:48:00,
2013-08-29 13:49:00,83.0,56.2,29.85,South,171,0.0,7.0,40,0.00,,---,0.00,VWS V14.00,2013-08-29 18:49:00,
2013-08-29 13:50:00,83.2,59.0,29.85,South,174,1.0,7.0,44,0.00,,---,0.00,VWS V14.00,2013-08-29 18:50:00,
2013-08-29 13:51:00,83.2,58.4,29.85,SSE,167,0.0,7.0,43,0.00,,---,0.00,VWS V14.00,2013-08-29 18:51:00,
2013-08-29 13:52:00,83.2,57.8,29.85,SSE,167,0.0,7.0,42,0.00,,---,0.00,VWS V14.00,2013-08-29 18:52:00,
2013-08-29 13:53:00,83.2,57.8,29.85,SSE,167,0.0,7.0,42,0.00,,---,0.00,VWS V14.00,2013-08-29 18:53:00,
2013-08-29 13:54:00,83.2,57.1,29.85,SSE,165,0.0,7.0,41,0.00,,---,0.00,VWS V14.00,2013-08-29 18:54:00,
2013-08-29 13:55:00,83.4,57.3,29.85,SSE,158,6.0,7.0,41,0.00,,---,0.00,VWS V14.00,2013-08-29 18:55:00,
2013-08-29 13:56:00,83.6,57.4,29.85,South,169,2.0,10.0,41,0.00,,---,0.00,VWS V14.00,2013-08-29 18:56:00,
2013-08-29 13:57:00,83.6,56.0,29.85,SSE,157,0.0,10.0,39,0.00,,---,0.00,VWS V14.00,2013-08-29 18:57:00,
2013-08-29 13:58:00,83.6,56.0,29.85,SSE,151,0.0,10.0,39,0.00,,---,0.00,VWS V14.00,2013-08-29 18:58:00,
2013-08-29 13:59:00,83.8,56.2,29.84,SSE,151,0.0,0.0,39,0.00,,---,0.00,VWS V14.00,2013-08-29 18:59:00,
2013-08-29 14:01:00,84.0,55.0,29.84,West,261,0.0,0.0,37,0.00,,---,0.00,VWS V14.00,2013-08-29 19:01:00,
2013-08-29 14:02:00,84.0,55.0,29.84,SSE,161,0.0,0.0,37,0.00,,---,0.00,VWS V14.00,2013-08-29 19:02:00,
2013-08-29 14:03:00,84.3,58.1,29.84,South,189,0.0,0.0,41,0.00,,---,0.00,VWS V14.00,2013-08-29 19:03:00,
2013-08-29 14:04:00,84.3,56.7,29.84,South,179,0.0,0.0,39,0.00,,---,0.00,VWS V14.00,2013-08-29 19:04:00,
2013-08-29 14:05:00,84.1,56.5,29.84,ESE,120,0.0,0.0,39,0.00,,---,0.00,VWS V14.00,2013-08-29 19:05:00,
2013-08-29 14:06:00,84.1,55.8,29.84,ESE,114,0.0,0.0,38,0.00,,---,0.00,VWS V14.00,2013-08-29 19:06:00,
2013-08-29 14:07:00,84.0,55.7,29.84,SE,130,0.0,0.0,38,0.00,,---,0.00,VWS V14.00,2013-08-29 19:07:00,
2013-08-29 14:08:00,84.0,55.7,29.84,SSW,200,10.0,10.0,38,0.00,,---,0.00,VWS V14.00,2013-08-29 19:08:00,
2013-08-29 14:09:00,83.8,56.9,29.84,SSW,198,0.0,10.0,40,0.00,,---,0.00,VWS V14.00,2013-08-29 19:09:00,
2013-08-29 14:10:00,83.8,56.9,29.84,SSW,198,0.0,10.0,40,0.00,,---,0.00,VWS V14.00,2013-08-29 19:10:00,
2013-08-29 14:12:00,84.0,57.8,29.84,SSW,192,0.0,10.0,41,0.00,,---,0.00,VWS V14.00,2013-08-29 19:12:00,
2013-08-29 14:13:00,84.1,57.2,29.83,SSW,198,0.0,10.0,40,0.00,,---,0.00,VWS V14.00,2013-08-29 19:13:00,
2013-08-29 14:15:00,84.1,56.5,29.83,South,184,0.0,10.0,39,0.00,,---,0.00,VWS V14.00,2013-08-29 19:15:00,
2013-08-29 14:16:00,84.1,55.0,29.83,South,184,0.0,10.0,37,0.00,,---,0.00,VWS V14.00,2013-08-29 19:16:00,
2013-08-29 14:17:00,84.1,55.0,29.83,South,184,0.0,10.0,37,0.00,,---,0.00,VWS V14.00,2013-08-29 19:17:00,
2013-08-29 14:18:00,84.5,56.8,29.83,South,184,0.0,10.0,39,0.00,,---,0.00,VWS V14.00,2013-08-29 19:18:00,
2013-08-29 14:19:00,84.5,56.1,29.83,South,184,0.0,10.0,38,0.00,,---,0.00,VWS V14.00,2013-08-29 19:19:00,
2013-08-29 14:21:00,84.3,56.0,29.83,ESE,110,0.0,10.0,38,0.00,,---,0.00,VWS V14.00,2013-08-29 19:21:00,
2013-08-29 14:22:00,84.3,56.0,29.83,SSE,148,0.0,10.0,38,0.00,,---,0.00,VWS V14.00,2013-08-29 19:22:00,
2013-08-29 14:23:00,84.1,56.5,29.83,SSE,162,3.0,10.0,39,0.00,,---,0.00,VWS V14.00,2013-08-29 19:23:00,
2013-08-29 14:25:00,83.6,56.8,29.83,South,184,1.0,10.0,40,0.00,,---,0.00,VWS V14.00,2013-08-29 19:25:00,
2013-08-29 14:26:00,83.6,56.8,29.83,South,179,0.0,10.0,40,0.00,,---,0.00,VWS V14.00,2013-08-29 19:26:00,
2013-08-29 14:27:00,83.6,56.0,29.83,South,179,0.0,10.0,39,0.00,,---,0.00,VWS V14.00,2013-08-29 19:27:00,
2013-08-29 14:28:00,83.6,56.0,29.83,South,179,0.0,10.0,39,0.00,,---,0.00,VWS V14.00,2013-08-29 19:28:00,
2013-08-29 14:29:00,83.6,56.8,29.83,ESE,121,0.0,10.0,40,0.00,,---,0.00,VWS V14.00,2013-08-29 19:29:00,
2013-08-29 14:30:00,84.0,57.8,29.83,East,100,3.0,6.0,41,0.00,,---,0.00,VWS V14.00,2013-08-29 19:30:00,
2013-08-29 14:32:00,84.1,57.9,29.83,South,186,0.0,6.0,41,0.00,,---,0.00,VWS V14.00,2013-08-29 19:32:00,
2013-08-29 14:33:00,84.1,57.2,29.83,SSE,160,0.0,6.0,40,0.00,,---,0.00,VWS V14.00,2013-08-29 19:33:00,
2013-08-29 14:34:00,84.3,56.0,29.83,SSE,158,0.0,6.0,38,0.00,,---,0.00,VWS V14.00,2013-08-29 19:34:00,
2013-08-29 14:35:00,84.5,56.8,29.83,ESE,116,0.0,6.0,39,0.00,,---,0.00,VWS V14.00,2013-08-29 19:35:00,
2013-08-29 14:37:00,84.7,57.7,29.83,SSE,162,7.0,7.0,40,0.00,,---,0.00,VWS V14.00,2013-08-29 19:37:00,
2013-08-29 14:38:00,84.7,57.7,29.83,SSE,161,3.0,11.0,40,0.00,,---,0.00,VWS V14.00,2013-08-29 19:38:00,
2013-08-29 14:39:00,84.3,57.4,29.83,South,175,0.0,11.0,40,0.00,,---,0.00,VWS V14.00,2013-08-29 19:39:00,
2013-08-29 14:40:00,84.1,55.8,29.83,SW,219,0.0,11.0,38,0.00,,---,0.00,VWS V14.00,2013-08-29 19:40:00,
2013-08-29 14:42:00,84.3,58.1,29.83,SSW,213,0.0,11.0,41,0.00,,---,0.00,VWS V14.00,2013-08-29 19:42:00,
2013-08-29 14:43:00,84.3,58.1,29.83,South,174,0.0,11.0,41,0.00,,---,0.00,VWS V14.00,2013-08-29 19:43:00,
2013-08-29 14:44:00,84.1,58.5,29.83,South,175,0.0,11.0,42,0.00,,---,0.00,VWS V14.00,2013-08-29 19:44:00,
2013-08-29 14:45:00,84.3,58.7,29.83,South,178,0.0,11.0,42,0.00,,---,0.00,VWS V14.00,2013-08-29 19:45:00,
2013-08-29 14:48:00,84.3,57.4,29.83,SSE,165,0.0,11.0,40,0.00,,---,0.00,VWS V14.00,2013-08-29 19:48:00,
2013-08-29 14:49:00,84.5,57.5,29.83,SSE,165,0.0,11.0,40,0.00,,---,0.00,VWS V14.00,2013-08-29 19:49:00,
2013-08-29 14:50:00,84.3,56.0,29.83,ESE,121,0.0,11.0,38,0.00,,---,0.00,VWS V14.00,2013-08-29 19:50:00,
2013-08-29 14:53:00,84.5,54.6,29.83,ESE,121,0.0,11.0,36,0.00,,---,0.00,VWS V14.00,2013-08-29 19:53:00,
2013-08-29 14:54:00,84.5,57.5,29.83,ESE,121,0.0,11.0,40,0.00,,---,0.00,VWS V14.00,2013-08-29 19:54:00,
2013-08-29 14:55:00,84.5,55.4,29.83,ESE,121,0.0,11.0,37,0.00,,---,0.00,VWS V14.00,2013-08-29 19:55:00,
2013-08-29 14:58:00,84.7,54.8,29.83,SE,127,0.0,11.0,36,0.00,,---,0.00,VWS V14.00,2013-08-29 19:58:00,
2013-08-29 14:59:00,84.7,57.0,29.83,SE,127,0.0,11.0,39,0.00,,---,0.00,VWS V14.00,2013-08-29 19:59:00,
2013-08-29 15:00:00,84.9,57.2,29.83,SE,127,0.0,0.0,39,0.00,,---,0.00,VWS V14.00,2013-08-29 20:00:00,
2013-08-29 15:03:00,85.1,57.4,29.83,SE,127,0.0,0.0,39,0.00,,---,0.00,VWS V14.00,2013-08-29 20:03:00,
2013-08-29 15:04:00,85.3,56.1,29.83,SE,127,0.0,0.0,37,0.00,,---,0.00,VWS V14.00,2013-08-29 20:04:00,
2013-08-29 15:05:00,85.1,58.1,29.83,SW,223,4.0,6.0,40,0.00,,---,0.00,VWS V14.00,2013-08-29 20:05:00,
2013-08-29 15:06:00,85.5,57.0,29.83,SE,140,5.0,7.0,38,0.00,,---,0.00,VWS V14.00,2013-08-29 20:06:00,
2013-08-29 15:08:00,85.5,57.0,29.83,SE,137,0.0,7.0,38,0.00,,---,0.00,VWS V14.00,2013-08-29 20:08:00,
2013-08-29 15:09:00,85.5,54.8,29.83,SE,137,0.0,7.0,35,0.00,,---,0.00,VWS V14.00,2013-08-29 20:09:00,
2013-08-29 15:10:00,85.5,54.8,29.83,SE,137,0.0,7.0,35,0.00,,---,0.00,VWS V14.00,2013-08-29 20:10:00,
2013-08-29 15:11:00,85.7,55.7,29.83,SE,137,0.0,7.0,36,0.00,,---,0.00,VWS V14.00,2013-08-29 20:11:00,
2013-08-29 15:12:00,85.7,54.1,29.83,SE,138,0.0,7.0,34,0.00,,---,0.00,VWS V14.00,2013-08-29 20:12:00,
2013-08-29 15:13:00,85.7,54.1,29.82,SE,138,0.0,7.0,34,0.00,,---,0.00,VWS V14.00,2013-08-29 20:13:00,
2013-08-29 15:14:00,85.7,54.9,29.82,SE,144,0.0,7.0,35,0.00,,---,0.00,VWS V14.00,2013-08-29 20:14:00,
2013-08-29 15:15:00,85.7,55.7,29.82,SE,144,0.0,7.0,36,0.00,,---,0.00,VWS V14.00,2013-08-29 20:15:00,
2013-08-29 15:16:00,85.9,55.9,29.82,SE,144,0.0,7.0,36,0.00,,---,0.00,VWS V14.00,2013-08-29 20:16:00,
2013-08-29 15:18:00,85.9,58.1,29.82,SE,144,0.0,7.0,39,0.00,,---,0.00,VWS V14.00,2013-08-29 20:18:00,
2013-08-29 15:19:00,85.9,58.1,29.82,SE,144,0.0,7.0,39,0.00,,---,0.00,VWS V14.00,2013-08-29 20:19:00,
2013-08-29 15:20:00,85.7,57.9,29.82,East,92,0.0,7.0,39,0.00,,---,0.00,VWS V14.00,2013-08-29 20:20:00,
2013-08-29 15:21:00,85.9,56.6,29.82,East,93,0.0,7.0,37,0.00,,---,0.00,VWS V14.00,2013-08-29 20:21:00,
2013-08-29 15:23:00,86.3,55.5,29.82,East,93,0.0,7.0,35,0.00,,---,0.00,VWS V14.00,2013-08-29 20:23:00,
2013-08-29 15:24:00,86.1,56.0,29.82,NE,44,2.0,7.0,36,0.00,,---,0.00,VWS V14.00,2013-08-29 20:24:00,
2013-08-29 15:25:00,86.1,55.3,29.82,ENE,62,2.0,7.0,35,0.00,,---,0.00,VWS V14.00,2013-08-29 20:25:00,
2013-08-29 15:27:00,85.9,55.1,29.82,NE,52,0.0,7.0,35,0.00,,---,0.00,VWS V14.00,2013-08-29 20:27:00,
2013-08-29 15:28:00,85.7,54.1,29.81,NNE,17,0.0,7.0,34,0.00,,---,0.00,VWS V14.00,2013-08-29 20:28:00,
2013-08-29 15:29:00,85.7,54.1,29.81,NNE,16,0.0,7.0,34,0.00,,---,0.00,VWS V14.00,2013-08-29 20:29:00,
2013-08-29 15:30:00,85.5,54.0,29.81,North,8,0.0,0.0,34,0.00,,---,0.00,VWS V14.00,2013-08-29 20:30:00,
2013-08-29 15:33:00,85.3,54.6,29.81,North,11,0.0,0.0,35,0.00,,---,0.00,VWS V14.00,2013-08-29 20:33:00,
2013-08-29 15:34:00,85.1,54.4,29.81,NNE,27,0.0,0.0,35,0.00,,---,0.00,VWS V14.00,2013-08-29 20:34:00,
2013-08-29 15:35:00,84.7,54.0,29.81,East,100,0.0,5.0,35,0.00,,---,0.00,VWS V14.00,2013-08-29 20:35:00,
2013-08-29 15:36:00,84.7,54.0,29.81,East,100,0.0,5.0,35,0.00,,---,0.00,VWS V14.00,2013-08-29 20:36:00,
2013-08-29 15:38:00,84.7,55.6,29.81,East,83,5.0,5.0,37,0.00,,---,0.00,VWS V14.00,2013-08-29 20:38:00,
2013-08-29 15:39:00,84.5,54.6,29.81,ESE,104,6.0,8.0,36,0.00,,---,0.00,VWS V14.00,2013-08-29 20:39:00,
2013-08-29 15:40:00,84.5,54.6,29.81,ESE,104,6.0,8.0,36,0.00,,---,0.00,VWS V14.00,2013-08-29 20:40:00,
2013-08-29 15:41:00,84.1,55.0,29.81,ESE,104,0.0,8.0,37,0.00,,---,0.00,VWS V14.00,2013-08-29 20:41:00,
2013-08-29 15:43:00,84.0,54.2,29.82,East,96,0.0,8.0,36,0.00,,---,0.00,VWS V14.00,2013-08-29 20:43:00,
2013-08-29 15:44:00,84.0,55.0,29.82,East,96,0.0,8.0,37,0.00,,---,0.00,VWS V14.00,2013-08-29 20:44:00,
2013-08-29 15:45:00,84.0,55.0,29.82,NNE,17,0.0,8.0,37,0.00,,---,0.00,VWS V14.00,2013-08-29 20:45:00,
2013-08-29 15:46:00,83.8,54.8,29.82,NNE,17,0.0,8.0,37,0.00,,---,0.00,VWS V14.00,2013-08-29 20:46:00,
2013-08-29 15:47:00,83.8,54.8,29.82,NNE,17,0.0,8.0,37,0.00,,---,0.00,VWS V14.00,2013-08-29 20:47:00,
2013-08-29 15:48:00,83.6,54.6,29.82,NNE,23,0.0,8.0,37,0.00,,---,0.00,VWS V14.00,2013-08-29 20:48:00,
2013-08-29 15:49:00,83.8,54.8,29.82,NE,47,0.0,8.0,37,0.00,,---,0.00,VWS V14.00,2013-08-29 20:49:00,
2013-08-29 15:50:00,84.0,55.0,29.82,ESE,123,5.0,8.0,37,0.00,,---,0.00,VWS V14.00,2013-08-29 20:50:00,
2013-08-29 15:51:00,84.0,55.0,29.82,ESE,107,7.0,8.0,37,0.00,,---,0.00,VWS V14.00,2013-08-29 20:51:00,
2013-08-29 15:52:00,84.0,55.0,29.82,East,82,0.0,9.0,37,0.00,,---,0.00,VWS V14.00,2013-08-29 20:52:00,
2013-08-29 15:53:00,84.1,54.3,29.82,East,82,0.0,9.0,36,0.00,,---,0.00,VWS V14.00,2013-08-29 20:53:00,
2013-08-29 15:55:00,84.5,54.6,29.82,East,82,0.0,9.0,36,0.00,,---,0.00,VWS V14.00,2013-08-29 20:55:00,
2013-08-29 15:56:00,84.7,56.3,29.82,East,82,0.0,9.0,38,0.00,,---,0.00,VWS V14.00,2013-08-29 20:56:00,
2013-08-29 15:57:00,84.9,54.2,29.82,East,82,0.0,9.0,35,0.00,,---,0.00,VWS V14.00,2013-08-29 20:57:00,
2013-08-29 15:58:00,84.9,54.2,29.81,East,82,0.0,9.0,35,0.00,,---,0.00,VWS V14.00,2013-08-29 20:58:00,
2013-08-29 16:00:00,85.1,56.7,29.81,North,356,0.0,0.0,38,0.00,,---,0.00,VWS V14.00,2013-08-29 21:00:00,
2013-08-29 16:01:00,85.5,55.5,29.81,North,3,0.0,0.0,36,0.00,,---,0.00,VWS V14.00,2013-08-29 21:01:00,
2013-08-29 16:02:00,85.3,55.3,29.81,NNE,30,0.0,4.0,36,0.00,,---,0.00,VWS V14.00,2013-08-29 21:02:00,
2013-08-29 16:03:00,85.5,54.8,29.81,NE,48,0.0,4.0,35,0.00,,---,0.00,VWS V14.00,2013-08-29 21:03:00,
2013-08-29 16:05:00,85.3,53.0,29.81,ENE,66,0.0,4.0,33,0.00,,---,0.00,VWS V14.00,2013-08-29 21:05:00,
2013-08-29 16:06:00,85.1,55.2,29.81,North,10,0.0,4.0,36,0.00,,---,0.00,VWS V14.00,2013-08-29 21:06:00,
2013-08-29 16:07:00,85.1,54.4,29.81,North,8,0.0,4.0,35,0.00,,---,0.00,VWS V14.00,2013-08-29 21:07:00,
2013-08-29 16:08:00,84.9,54.2,29.81,North,8,0.0,4.0,35,0.00,,---,0.00,VWS V14.00,2013-08-29 21:08:00,
2013-08-29 16:11:00,84.7,54.0,29.81,NNE,17,0.0,4.0,35,0.00,,---,0.00,VWS V14.00,2013-08-29 21:11:00,
2013-08-29 16:13:00,84.1,52.7,29.81,NNE,27,0.0,4.0,34,0.00,,---,0.00,VWS V14.00,2013-08-29 21:13:00,
2013-08-29 16:16:00,84.0,53.4,29.80,NNE,27,0.0,4.0,35,0.00,,---,0.00,VWS V14.00,2013-08-29 21:16:00,
2013-08-29 16:18:00,84.0,53.4,29.80,NNE,27,0.0,4.0,35,0.00,,---,0.00,VWS V14.00,2013-08-29 21:18:00,
2013-08-29 16:19:00,84.0,53.4,29.80,NNE,27,0.0,4.0,35,0.00,,---,0.00,VWS V14.00,2013-08-29 21:19:00,
2013-08-29 16:21:00,84.0,54.2,29.80,NNE,27,0.0,4.0,36,0.00,,---,0.00,VWS V14.00,2013-08-29 21:21:00,
2013-08-29 16:22:00,84.0,55.7,29.80,North,3,0.0,4.0,38,0.00,,---,0.00,VWS V14.00,2013-08-29 21:22:00,
2013-08-29 16:23:00,83.8,55.5,29.80,North,3,0.0,4.0,38,0.00,,---,0.00,VWS V14.00,2013-08-29 21:23:00,
2013-08-29 16:24:00,83.8,55.5,29.80,North,3,0.0,4.0,38,0.00,,---,0.00,VWS V14.00,2013-08-29 21:24:00,
2013-08-29 16:26:00,83.4,55.2,29.80,NNE,18,0.0,4.0,38,0.00,,---,0.00,VWS V14.00,2013-08-29 21:26:00,
2013-08-29 16:27:00,83.4,54.4,29.80,ENE,58,0.0,6.0,37,0.00,,---,0.00,VWS V14.00,2013-08-29 21:27:00,
2013-08-29 16:28:00,83.2,54.2,29.80,ENE,58,0.0,6.0,37,0.00,,---,0.00,VWS V14.00,2013-08-29 21:28:00,
2013-08-29 16:29:00,83.0,54.1,29.81,NE,37,0.0,6.0,37,0.00,,---,0.00,VWS V14.00,2013-08-29 21:29:00,
2013-08-29 16:31:00,82.8,53.9,29.81,NNE,17,0.0,0.0,37,0.00,,---,0.00,VWS V14.00,2013-08-29 21:31:00,
2013-08-29 16:32:00,82.8,53.9,29.81,NNE,17,0.0,0.0,37,0.00,,---,0.00,VWS V14.00,2013-08-29 21:32:00,
2013-08-29 16:33:00,82.8,53.9,29.81,NNE,17,0.0,0.0,37,0.00,,---,0.00,VWS V14.00,2013-08-29 21:33:00,
2013-08-29 16:34:00,82.8,53.9,29.81,NNE,17,0.0,0.0,37,0.00,,---,0.00,VWS V14.00,2013-08-29 21:34:00,
2013-08-29 16:36:00,82.8,53.9,29.81,NNE,17,0.0,0.0,37,0.00,,---,0.00,VWS V14.00,2013-08-29 21:36:00,
2013-08-29 16:37:00,83.0,54.1,29.81,NNE,17,0.0,0.0,37,0.00,,---,0.00,VWS V14.00,2013-08-29 21:37:00,
2013-08-29 16:38:00,83.0,54.1,29.81,NNE,17,0.0,0.0,37,0.00,,---,0.00,VWS V14.00,2013-08-29 21:38:00,
2013-08-29 16:39:00,83.2,54.2,29.81,NNE,17,0.0,0.0,37,0.00,,---,0.00,VWS V14.00,2013-08-29 21:39:00,
2013-08-29 16:40:00,83.6,54.6,29.81,NNE,21,0.0,0.0,37,0.00,,---,0.00,VWS V14.00,2013-08-29 21:40:00,
2013-08-29 16:41:00,84.0,54.2,29.81,NNE,23,0.0,0.0,36,0.00,,---,0.00,VWS V14.00,2013-08-29 21:41:00,
2013-08-29 16:42:00,84.1,55.0,29.81,NNE,25,0.0,0.0,37,0.00,,---,0.00,VWS V14.00,2013-08-29 21:42:00,
2013-08-29 16:43:00,84.7,56.3,29.79,NE,54,0.0,0.0,38,0.00,,---,0.00,VWS V14.00,2013-08-29 21:43:00,
2013-08-29 16:44:00,84.5,56.1,29.79,East,86,5.0,5.0,38,0.00,,---,0.00,VWS V14.00,2013-08-29 21:44:00,
2013-08-29 16:45:00,84.5,53.9,29.79,East,86,0.0,5.0,35,0.00,,---,0.00,VWS V14.00,2013-08-29 21:45:00,
2013-08-29 16:46:00,84.9,53.4,29.79,East,86,0.0,5.0,34,0.00,,---,0.00,VWS V14.00,2013-08-29 21:46:00,
2013-08-29 16:47:00,85.1,53.6,29.79,ENE,65,0.0,5.0,34,0.00,,---,0.00,VWS V14.00,2013-08-29 21:47:00,
2013-08-29 16:48:00,85.1,53.6,29.79,NE,47,0.0,5.0,34,0.00,,---,0.00,VWS V14.00,2013-08-29 21:48:00,
2013-08-29 16:49:00,85.1,51.1,29.79,NE,48,0.0,5.0,31,0.00,,---,0.00,VWS V14.00,2013-08-29 21:49:00,
2013-08-29 16:50:00,85.5,54.0,29.79,NE,48,0.0,5.0,34,0.00,,---,0.00,VWS V14.00,2013-08-29 21:50:00,
2013-08-29 16:51:00,85.7,54.1,29.79,NE,48,0.0,5.0,34,0.00,,---,0.00,VWS V14.00,2013-08-29 21:51:00,
2013-08-29 16:52:00,85.7,54.1,29.79,North,11,0.0,5.0,34,0.00,,---,0.00,VWS V14.00,2013-08-29 21:52:00,
2013-08-29 16:54:00,85.7,54.1,29.79,NNE,16,0.0,5.0,34,0.00,,---,0.00,VWS V14.00,2013-08-29 21:54:00,
2013-08-29 16:56:00,85.7,53.3,29.79,NNE,25,0.0,5.0,33,0.00,,---,0.00,VWS V14.00,2013-08-29 21:56:00,
2013-08-29 16:57:00,85.7,54.1,29.79,NNE,24,0.0,5.0,34,0.00,,---,0.00,VWS V14.00,2013-08-29 21:57:00,
2013-08-29 16:59:00,85.9,53.5,29.78,NNE,18,0.0,5.0,33,0.00,,---,0.00,VWS V14.00,2013-08-29 21:59:00,
2013-08-29 17:01:00,86.1,53.7,29.78,NNE,18,0.0,0.0,33,0.00,,---,0.00,VWS V14.00,2013-08-29 22:01:00,
2013-08-29 17:02:00,86.1,56.8,29.78,NE,49,5.0,7.0,37,0.00,,---,0.00,VWS V14.00,2013-08-29 22:02:00,
2013-08-29 17:04:00,86.1,52.8,29.78,NE,47,0.0,7.0,32,0.00,,---,0.00,VWS V14.00,2013-08-29 22:04:00,
2013-08-29 17:05:00,86.1,52.8,29.78,NE,47,0.0,7.0,32,0.00,,---,0.00,VWS V14.00,2013-08-29 22:05:00,
2013-08-29 17:07:00,86.3,53.0,29.78,NE,47,0.0,7.0,32,0.00,,---,0.00,VWS V14.00,2013-08-29 22:07:00,
2013-08-29 17:08:00,86.3,53.0,29.78,NE,47,0.0,7.0,32,0.00,,---,0.00,VWS V14.00,2013-08-29 22:08:00,
2013-08-29 17:09:00,86.3,53.0,29.78,ENE,62,3.0,7.0,32,0.00,,---,0.00,VWS V14.00,2013-08-29 22:09:00,
2013-08-29 17:10:00,86.1,52.8,29.78,NE,52,0.0,7.0,32,0.00,,---,0.00,VWS V14.00,2013-08-29 22:10:00,
2013-08-29 17:12:00,86.1,54.5,29.78,North,1,4.0,7.0,34,0.00,,---,0.00,VWS V14.00,2013-08-29 22:12:00,
2013-08-29 17:13:00,86.3,53.8,29.78,North,4,0.0,7.0,33,0.00,,---,0.00,VWS V14.00,2013-08-29 22:13:00,
2013-08-29 17:14:00,86.3,53.8,29.79,North,4,0.0,7.0,33,0.00,,---,0.00,VWS V14.00,2013-08-29 22:14:00,
2013-08-29 17:15:00,85.7,53.3,29.79,North,6,0.0,7.0,33,0.00,,---,0.00,VWS V14.00,2013-08-29 22:15:00,
2013-08-29 17:17:00,85.7,53.3,29.79,North,7,0.0,7.0,33,0.00,,---,0.00,VWS V14.00,2013-08-29 22:17:00,
2013-08-29 17:18:00,85.7,53.3,29.79,North,7,0.0,7.0,33,0.00,,---,0.00,VWS V14.00,2013-08-29 22:18:00,
2013-08-29 17:19:00,85.7,53.3,29.79,North,7,0.0,7.0,33,0.00,,---,0.00,VWS V14.00,2013-08-29 22:19:00,
2013-08-29 17:20:00,85.7,53.3,29.79,North,7,0.0,7.0,33,0.00,,---,0.00,VWS V14.00,2013-08-29 22:20:00,
2013-08-29 17:22:00,85.7,53.3,29.79,ENE,64,2.0,7.0,33,0.00,,---,0.00,VWS V14.00,2013-08-29 22:22:00,
2013-08-29 17:23:00,85.7,53.3,29.79,ENE,66,0.0,7.0,33,0.00,,---,0.00,VWS V14.00,2013-08-29 22:23:00,
2013-08-29 17:24:00,86.3,53.8,29.79,ENE,69,0.0,7.0,33,0.00,,---,0.00,VWS V14.00,2013-08-29 22:24:00,
2013-08-29 17:25:00,86.3,53.8,29.79,ENE,69,0.0,7.0,33,0.00,,---,0.00,VWS V14.00,2013-08-29 22:25:00,
2013-08-29 17:26:00,86.3,53.8,29.79,ENE,69,0.0,7.0,33,0.00,,---,0.00,VWS V14.00,2013-08-29 22:26:00,
2013-08-29 17:27:00,86.3,53.0,29.79,North,11,0.0,7.0,32,0.00,,---,0.00,VWS V14.00,2013-08-29 22:27:00,
2013-08-29 17:28:00,86.3,53.0,29.79,North,4,0.0,7.0,32,0.00,,---,0.00,VWS V14.00,2013-08-29 22:28:00,
2013-08-29 17:30:00,86.7,53.3,29.78,North,4,0.0,0.0,32,0.00,,---,0.00,VWS V14.00,2013-08-29 22:30:00,
2013-08-29 17:31:00,86.5,53.2,29.78,North,10,0.0,0.0,32,0.00,,---,0.00,VWS V14.00,2013-08-29 22:31:00,
2013-08-29 17:32:00,86.5,53.2,29.78,ENE,68,0.0,5.0,32,0.00,,---,0.00,VWS V14.00,2013-08-29 22:32:00,
2013-08-29 17:33:00,86.5,53.2,29.78,ENE,68,0.0,5.0,32,0.00,,---,0.00,VWS V14.00,2013-08-29 22:33:00,
2013-08-29 17:35:00,86.7,55.8,29.78,NNE,18,0.0,5.0,35,0.00,,---,0.00,VWS V14.00,2013-08-29 22:35:00,
2013-08-29 17:36:00,86.7,54.2,29.78,NE,45,0.0,5.0,33,0.00,,---,0.00,VWS V14.00,2013-08-29 22:36:00,
2013-08-29 17:37:00,86.7,52.5,29.78,NE,52,5.0,8.0,31,0.00,,---,0.00,VWS V14.00,2013-08-29 22:37:00,
2013-08-29 17:38:00,86.5,52.3,29.78,NE,48,6.0,8.0,31,0.00,,---,0.00,VWS V14.00,2013-08-29 22:38:00,
2013-08-29 17:40:00,86.3,52.1,29.78,NNE,20,6.0,8.0,31,0.00,,---,0.00,VWS V14.00,2013-08-29 22:40:00,
2013-08-29 17:41:00,86.3,53.8,29.78,NNE,25,0.0,8.0,33,0.00,,---,0.00,VWS V14.00,2013-08-29 22:41:00,
2013-08-29 17:42:00,85.9,53.5,29.78,NNE,25,0.0,8.0,33,0.00,,---,0.00,VWS V14.00,2013-08-29 22:42:00,
2013-08-29 17:43:00,85.9,54.3,29.78,NE,44,3.0,8.0,34,0.00,,---,0.00,VWS V14.00,2013-08-29 22:43:00,
2013-08-29 17:44:00,85.5,51.4,29.79,NE,41,0.0,8.0,31,0.00,,---,0.00,VWS V14.00,2013-08-29 22:44:00,
2013-08-29 17:45:00,85.3,51.3,29.79,NE,41,0.0,8.0,31,0.00,,---,0.00,VWS V14.00,2013-08-29 22:45:00,
2013-08-29 17:46:00,84.9,52.6,29.79,ENE,59,0.0,8.0,33,0.00,,---,0.00,VWS V14.00,2013-08-29 22:46:00,
2013-08-29 17:47:00,84.9,53.4,29.79,ENE,59,0.0,8.0,34,0.00,,---,0.00,VWS V14.00,2013-08-29 22:47:00,
2013-08-29 17:48:00,84.5,53.1,29.79,ENE,61,0.0,8.0,34,0.00,,---,0.00,VWS V14.00,2013-08-29 22:48:00,
2013-08-29 17:50:00,84.1,52.7,29.79,ENE,76,0.0,8.0,34,0.00,,---,0.00,VWS V14.00,2013-08-29 22:50:00,
2013-08-29 17:51:00,84.0,52.6,29.79,East,79,1.0,8.0,34,0.00,,---,0.00,VWS V14.00,2013-08-29 22:51:00,
2013-08-29 17:52:00,83.8,53.3,29.79,NE,38,0.0,8.0,35,0.00,,---,0.00,VWS V14.00,2013-08-29 22:52:00,
2013-08-29 17:53:00,83.6,53.1,29.79,NE,38,0.0,8.0,35,0.00,,---,0.00,VWS V14.00,2013-08-29 22:53:00,
2013-08-29 17:54:00,83.6,53.1,29.79,NE,38,0.0,8.0,35,0.00,,---,0.00,VWS V14.00,2013-08-29 22:54:00,
2013-08-29 17:55:00,83.4,52.9,29.79,NE,40,0.0,8.0,35,0.00,,---,0.00,VWS V14.00,2013-08-29 22:55:00,
2013-08-29 17:57:00,83.2,52.7,29.79,NE,38,0.0,8.0,35,0.00,,---,0.00,VWS V14.00,2013-08-29 22:57:00,
2013-08-29 17:58:00,83.2,52.7,29.79,NE,38,0.0,8.0,35,0.00,,---,0.00,VWS V14.00,2013-08-29 22:58:00,
2013-08-29 17:59:00,83.2,52.7,29.80,NE,38,0.0,8.0,35,0.00,,---,0.00,VWS V14.00,2013-08-29 22:59:00,
2013-08-29 18:00:00,83.0,53.3,29.80,NE,38,0.0,0.0,36,0.00,,---,0.00,VWS V14.00,2013-08-29 23:00:00,
2013-08-29 18:02:00,82.8,53.9,29.80,NE,38,0.0,0.0,37,0.00,,---,0.00,VWS V14.00,2013-08-29 23:02:00,
2013-08-29 18:03:00,82.8,52.4,29.80,NE,38,0.0,0.0,35,0.00,,---,0.00,VWS V14.00,2013-08-29 23:03:00,
2013-08-29 18:04:00,82.8,52.4,29.80,NE,38,0.0,0.0,35,0.00,,---,0.00,VWS V14.00,2013-08-29 23:04:00,
2013-08-29 18:05:00,82.8,52.4,29.80,NE,38,0.0,0.0,35,0.00,,---,0.00,VWS V14.00,2013-08-29 23:05:00,
2013-08-29 18:07:00,82.6,53.0,29.80,NE,38,0.0,0.0,36,0.00,,---,0.00,VWS V14.00,2013-08-29 23:07:00,
2013-08-29 18:09:00,82.6,53.7,29.80,NE,38,0.0,0.0,37,0.00,,---,0.00,VWS V14.00,2013-08-29 23:09:00,
2013-08-29 18:10:00,82.8,53.2,29.80,NE,38,0.0,0.0,36,0.00,,---,0.00,VWS V14.00,2013-08-29 23:10:00,
2013-08-29 18:13:00,83.4,54.4,29.80,NE,38,0.0,0.0,37,0.00,,---,0.00,VWS V14.00,2013-08-29 23:13:00,
2013-08-29 18:14:00,83.6,54.6,29.81,NE,38,0.0,0.0,37,0.00,,---,0.00,VWS V14.00,2013-08-29 23:14:00,
2013-08-29 18:15:00,83.6,53.1,29.81,NE,38,0.0,0.0,35,0.00,,---,0.00,VWS V14.00,2013-08-29 23:15:00,
2013-08-29 18:18:00,83.6,53.1,29.81,NE,38,0.0,0.0,35,0.00,,---,0.00,VWS V14.00,2013-08-29 23:18:00,
2013-08-29 18:19:00,83.8,51.7,29.81,NE,38,0.0,0.0,33,0.00,,---,0.00,VWS V14.00,2013-08-29 23:19:00,
2013-08-29 18:20:00,83.8,54.0,29.81,NE,38,0.0,0.0,36,0.00,,---,0.00,VWS V14.00,2013-08-29 23:20:00,
2013-08-29 18:24:00,83.8,52.5,29.81,NE,38,0.0,0.0,34,0.00,,---,0.00,VWS V14.00,2013-08-29 23:24:00,
2013-08-29 18:25:00,83.8,52.5,29.81,NE,38,0.0,0.0,34,0.00,,---,0.00,VWS V14.00,2013-08-29 23:25:00,
2013-08-29 18:26:00,83.8,52.5,29.81,NE,38,0.0,0.0,34,0.00,,---,0.00,VWS V14.00,2013-08-29 23:26:00,
2013-08-29 18:29:00,83.6,55.3,29.80,NE,38,0.0,0.0,38,0.00,,---,0.00,VWS V14.00,2013-08-29 23:29:00,
2013-08-29 18:31:00,83.6,53.8,29.80,NE,38,0.0,0.0,36,0.00,,---,0.00,VWS V14.00,2013-08-29 23:31:00,
2013-08-29 18:32:00,83.8,51.7,29.80,NE,38,0.0,0.0,33,0.00,,---,0.00,VWS V14.00,2013-08-29 23:32:00,
2013-08-29 18:34:00,84.1,54.3,29.80,NE,38,0.0,0.0,36,0.00,,---,0.00,VWS V14.00,2013-08-29 23:34:00,
2013-08-29 18:36:00,84.3,52.9,29.80,NE,38,0.0,0.0,34,0.00,,---,0.00,VWS V14.00,2013-08-29 23:36:00,
2013-08-29 18:37:00,84.3,52.9,29.80,NNE,17,0.0,0.0,34,0.00,,---,0.00,VWS V14.00,2013-08-29 23:37:00,
2013-08-29 18:39:00,84.7,53.3,29.80,North,1,0.0,0.0,34,0.00,,---,0.00,VWS V14.00,2013-08-29 23:39:00,
2013-08-29 18:40:00,84.7,53.3,29.80,North,1,0.0,0.0,34,0.00,,---,0.00,VWS V14.00,2013-08-29 23:40:00,
2013-08-29 18:41:00,84.7,53.3,29.80,NE,45,0.0,0.0,34,0.00,,---,0.00,VWS V14.00,2013-08-29 23:41:00,
2013-08-29 18:43:00,84.7,52.4,29.80,NNE,28,0.0,0.0,33,0.00,,---,0.00,VWS V14.00,2013-08-29 23:43:00,
2013-08-29 18:44:00,84.7,52.4,29.80,NNE,16,0.0,0.0,33,0.00,,---,0.00,VWS V14.00,2013-08-29 23:44:00,
2013-08-29 18:45:00,84.7,51.6,29.80,NNE,21,0.0,0.0,32,0.00,,---,0.00,VWS V14.00,2013-08-29 23:45:00,
2013-08-29 18:46:00,84.7,53.3,29.80,NNE,28,0.0,0.0,34,0.00,,---,0.00,VWS V14.00,2013-08-29 23:46:00,
2013-08-29 18:48:00,84.7,52.4,29.80,NNE,27,0.0,0.0,33,0.00,,---,0.00,VWS V14.00,2013-08-29 23:48:00,
2013-08-29 18:49:00,84.7,52.4,29.80,NNE,28,0.0,0.0,33,0.00,,---,0.00,VWS V14.00,2013-08-29 23:49:00,
2013-08-29 18:50:00,84.7,52.4,29.80,NE,49,0.0,0.0,33,0.00,,---,0.00,VWS V14.00,2013-08-29 23:50:00,
2013-08-29 18:51:00,84.5,52.3,29.80,ENE,64,0.0,0.0,33,0.00,,---,0.00,VWS V14.00,2013-08-29 23:51:00,
2013-08-29 18:53:00,84.5,50.6,29.80,NNE,27,0.0,0.0,31,0.00,,---,0.00,VWS V14.00,2013-08-29 23:53:00,
2013-08-29 18:54:00,84.3,52.9,29.80,NE,55,0.0,0.0,34,0.00,,---,0.00,VWS V14.00,2013-08-29 23:54:00,
2013-08-29 18:55:00,84.3,52.1,29.80,NE,56,0.0,0.0,33,0.00,,---,0.00,VWS V14.00,2013-08-29 23:55:00,
2013-08-29 18:56:00,84.3,52.1,29.80,NE,44,0.0,0.0,33,0.00,,---,0.00,VWS V14.00,2013-08-29 23:56:00,
2013-08-29 18:59:00,84.1,51.1,29.80,NNE,28,0.0,0.0,32,0.00,,---,0.00,VWS V14.00,2013-08-29 23:59:00,
2013-08-29 19:00:00,84.1,51.1,29.80,North,7,0.0,0.0,32,0.00,,---,0.00,VWS V14.00,2013-08-30 00:00:00,
2013-08-29 19:01:00,84.1,51.1,29.80,NNE,13,0.0,0.0,32,0.00,,---,0.00,VWS V14.00,2013-08-30 00:01:00,
2013-08-29 19:04:00,84.0,52.6,29.80,ENE,58,0.0,0.0,34,0.00,,---,0.00,VWS V14.00,2013-08-30 00:04:00,
2013-08-29 19:05:00,84.0,51.0,29.80,ENE,59,0.0,0.0,32,0.00,,---,0.00,VWS V14.00,2013-08-30 00:05:00,
2013-08-29 19:06:00,84.0,51.0,29.80,ENE,59,0.0,0.0,32,0.00,,---,0.00,VWS V14.00,2013-08-30 00:06:00,
2013-08-29 19:09:00,83.6,51.5,29.80,NE,49,0.0,0.0,33,0.00,,---,0.00,VWS V14.00,2013-08-30 00:09:00,
2013-08-29 19:10:00,83.6,51.5,29.80,NE,49,0.0,0.0,33,0.00,,---,0.00,VWS V14.00,2013-08-30 00:10:00,
2013-08-29 19:12:00,83.6,52.3,29.80,NE,49,0.0,0.0,34,0.00,,---,0.00,VWS V14.00,2013-08-30 00:12:00,
2013-08-29 19:15:00,83.4,51.3,29.80,ESE,107,0.0,0.0,33,0.00,,---,0.00,VWS V14.00,2013-08-30 00:15:00,
2013-08-29 19:17:00,83.2,51.9,29.80,ESE,103,0.0,0.0,34,0.00,,---,0.00,VWS V14.00,2013-08-30 00:17:00,
2013-08-29 19:20:00,83.0,52.6,29.80,ESE,103,0.0,0.0,35,0.00,,---,0.00,VWS V14.00,2013-08-30 00:20:00,
2013-08-29 19:21:00,83.0,52.6,29.80,ESE,103,0.0,0.0,35,0.00,,---,0.00,VWS V14.00,2013-08-30 00:21:00,
2013-08-29 19:22:00,83.0,52.6,29.80,ESE,103,0.0,0.0,35,0.00,,---,0.00,VWS V14.00,2013-08-30 00:22:00,
2013-08-29 19:25:00,82.8,51.6,29.80,ESE,103,0.0,0.0,34,0.00,,---,0.00,VWS V14.00,2013-08-30 00:25:00,
2013-08-29 19:26:00,82.8,51.6,29.80,ESE,103,0.0,0.0,34,0.00,,---,0.00,VWS V14.00,2013-08-30 00:26:00,
2013-08-29 19:27:00,82.8,52.4,29.80,ESE,103,0.0,0.0,35,0.00,,---,0.00,VWS V14.00,2013-08-30 00:27:00,
2013-08-29 19:28:00,82.6,52.2,29.80,ESE,103,0.0,0.0,35,0.00,,---,0.00,VWS V14.00,2013-08-30 00:28:00,
2013-08-29 19:30:00,82.4,52.0,29.80,ESE,103,0.0,0.0,35,0.00,,---,0.00,VWS V14.00,2013-08-30 00:30:00,
2013-08-29 19:31:00,82.4,52.0,29.80,ESE,103,0.0,0.0,35,0.00,,---,0.00,VWS V14.00,2013-08-30 00:31:00,
2013-08-29 19:32:00,82.2,51.8,29.80,ESE,103,0.0,0.0,35,0.00,,---,0.00,VWS V14.00,2013-08-30 00:32:00,
2013-08-29 19:33:00,82.0,52.4,29.80,ESE,103,0.0,0.0,36,0.00,,---,0.00,VWS V14.00,2013-08-30 00:33:00,
2013-08-29 19:35:00,81.6,51.3,29.80,ESE,103,0.0,0.0,35,0.00,,---,0.00,VWS V14.00,2013-08-30 00:35:00,
2013-08-29 19:36:00,81.6,51.3,29.80,ESE,103,0.0,0.0,35,0.00,,---,0.00,VWS V14.00,2013-08-30 00:36:00,
2013-08-29 19:37:00,81.6,52.1,29.80,ESE,103,0.0,0.0,36,0.00,,---,0.00,VWS V14.00,2013-08-30 00:37:00,
2013-08-29 19:39:00,81.4,51.9,29.80,ESE,103,0.0,0.0,36,0.00,,---,0.00,VWS V14.00,2013-08-30 00:39:00,
2013-08-29 19:40:00,81.2,52.5,29.80,ESE,103,0.0,0.0,37,0.00,,---,0.00,VWS V14.00,2013-08-30 00:40:00,
2013-08-29 19:41:00,81.1,52.4,29.80,ESE,103,0.0,0.0,37,0.00,,---,0.00,VWS V14.00,2013-08-30 00:41:00,
2013-08-29 19:42:00,81.1,52.4,29.80,ESE,103,0.0,0.0,37,0.00,,---,0.00,VWS V14.00,2013-08-30 00:42:00,
2013-08-29 19:44:00,80.9,50.7,29.81,ESE,103,0.0,0.0,35,0.00,,---,0.00,VWS V14.00,2013-08-30 00:44:00,
2013-08-29 19:46:00,80.9,51.5,29.81,ESE,103,0.0,0.0,36,0.00,,---,0.00,VWS V14.00,2013-08-30 00:46:00,
2013-08-29 19:47:00,80.7,51.3,29.81,ESE,103,0.0,0.0,36,0.00,,---,0.00,VWS V14.00,2013-08-30 00:47:00,
2013-08-29 19:50:00,80.3,51.7,29.81,ESE,103,0.0,0.0,37,0.00,,---,0.00,VWS V14.00,2013-08-30 00:50:00,
2013-08-29 19:51:00,80.3,51.7,29.81,ESE,103,0.0,0.0,37,0.00,,---,0.00,VWS V14.00,2013-08-30 00:51:00,
2013-08-29 19:52:00,80.3,51.7,29.81,ESE,103,0.0,0.0,37,0.00,,---,0.00,VWS V14.00,2013-08-30 00:52:00,
2013-08-29 19:54:00,80.1,51.5,29.81,ESE,103,0.0,0.0,37,0.00,,---,0.00,VWS V14.00,2013-08-30 00:54:00,
2013-08-29 19:55:00,79.9,51.3,29.81,ESE,103,0.0,0.0,37,0.00,,---,0.00,VWS V14.00,2013-08-30 00:55:00,
2013-08-29 19:56:00,79.9,52.0,29.81,ESE,103,0.0,0.0,38,0.00,,---,0.00,VWS V14.00,2013-08-30 00:56:00,
2013-08-29 19:57:00,79.9,51.3,29.81,ESE,103,0.0,0.0,37,0.00,,---,0.00,VWS V14.00,2013-08-30 00:57:00,
2013-08-29 19:58:00,79.9,51.3,29.81,ESE,103,0.0,0.0,37,0.00,,---,0.00,VWS V14.00,2013-08-30 00:58:00,
2013-08-29 19:59:00,79.8,51.2,29.83,ESE,103,0.0,0.0,37,0.00,,---,0.00,VWS V14.00,2013-08-30 00:59:00,
2013-08-29 20:00:00,79.8,52.0,29.83,ESE,103,0.0,0.0,38,0.00,,---,0.00,VWS V14.00,2013-08-30 01:00:00,
2013-08-29 20:01:00,79.6,51.8,29.83,ESE,103,0.0,0.0,38,0.00,,---,0.00,VWS V14.00,2013-08-30 01:01:00,
2013-08-29 20:02:00,79.6,51.8,29.83,ESE,103,0.0,0.0,38,0.00,,---,0.00,VWS V14.00,2013-08-30 01:02:00,
2013-08-29 20:03:00,79.6,51.8,29.83,ESE,103,0.0,0.0,38,0.00,,---,0.00,VWS V14.00,2013-08-30 01:03:00,
2013-08-29 20:05:00,79.4,52.3,29.83,ESE,103,0.0,0.0,39,0.00,,---,0.00,VWS V14.00,2013-08-30 01:05:00,
2013-08-29 20:06:00,79.2,51.4,29.83,ESE,103,0.0,0.0,38,0.00,,---,0.00,VWS V14.00,2013-08-30 01:06:00,
2013-08-29 20:07:00,79.2,51.4,29.83,ESE,103,0.0,0.0,38,0.00,,---,0.00,VWS V14.00,2013-08-30 01:07:00,
2013-08-29 20:08:00,79.2,51.4,29.83,ESE,103,0.0,0.0,38,0.00,,---,0.00,VWS V14.00,2013-08-30 01:08:00,
2013-08-29 20:10:00,78.8,51.8,29.83,ESE,103,0.0,0.0,39,0.00,,---,0.00,VWS V14.00,2013-08-30 01:10:00,
2013-08-29 20:11:00,78.8,51.8,29.83,ESE,103,0.0,0.0,39,0.00,,---,0.00,VWS V14.00,2013-08-30 01:11:00,
2013-08-29 20:12:00,78.8,51.8,29.83,ESE,103,0.0,0.0,39,0.00,,---,0.00,VWS V14.00,2013-08-30 01:12:00,
2013-08-29 20:13:00,78.6,52.3,29.83,ESE,103,0.0,0.0,40,0.00,,---,0.00,VWS V14.00,2013-08-30 01:13:00,
2013-08-29 20:15:00,78.5,52.9,29.79,ESE,103,0.0,0.0,41,0.00,,---,0.00,VWS V14.00,2013-08-30 01:15:00,
2013-08-29 20:16:00,78.3,52.7,29.79,ESE,103,0.0,0.0,41,0.00,,---,0.00,VWS V14.00,2013-08-30 01:16:00,
2013-08-29 20:17:00,78.3,52.7,29.79,ESE,103,0.0,0.0,41,0.00,,---,0.00,VWS V14.00,2013-08-30 01:17:00,
2013-08-29 20:18:00,78.3,53.3,29.79,ESE,103,0.0,0.0,42,0.00,,---,0.00,VWS V14.00,2013-08-30 01:18:00,
2013-08-29 20:21:00,77.9,54.3,29.79,ESE,103,0.0,0.0,44,0.00,,---,0.00,VWS V14.00,2013-08-30 01:21:00,
2013-08-29 20:22:00,77.9,54.3,29.79,ESE,103,0.0,0.0,44,0.00,,---,0.00,VWS V14.00,2013-08-30 01:22:00,
2013-08-29 20:23:00,77.7,55.3,29.79,ESE,103,0.0,0.0,46,0.00,,---,0.00,VWS V14.00,2013-08-30 01:23:00,
2013-08-29 20:26:00,77.2,55.4,29.79,ESE,103,0.0,0.0,47,0.00,,---,0.00,VWS V14.00,2013-08-30 01:26:00,
2013-08-29 20:27:00,77.0,55.2,29.79,ESE,103,0.0,0.0,47,0.00,,---,0.00,VWS V14.00,2013-08-30 01:27:00,
2013-08-29 20:28:00,76.8,55.1,29.79,ESE,103,0.0,0.0,47,0.00,,---,0.00,VWS V14.00,2013-08-30 01:28:00,
2013-08-29 20:31:00,76.3,56.3,29.80,ESE,103,0.0,0.0,50,0.00,,---,0.00,VWS V14.00,2013-08-30 01:31:00,
2013-08-29 20:32:00,76.3,56.3,29.80,ESE,103,0.0,0.0,50,0.00,,---,0.00,VWS V14.00,2013-08-30 01:32:00,
2013-08-29 20:33:00,76.1,56.1,29.80,ESE,103,0.0,0.0,50,0.00,,---,0.00,VWS V14.00,2013-08-30 01:33:00,
2013-08-29 20:37:00,75.6,56.2,29.80,ESE,103,0.0,0.0,51,0.00,,---,0.00,VWS V14.00,2013-08-30 01:37:00,
2013-08-29 20:38:00,75.3,54.8,29.80,ESE,103,0.0,0.0,49,0.00,,---,0.00,VWS V14.00,2013-08-30 01:38:00,
2013-08-29 20:39:00,75.3,55.4,29.80,ESE,103,0.0,0.0,50,0.00,,---,0.00,VWS V14.00,2013-08-30 01:39:00,
2013-08-29 20:42:00,74.9,55.6,29.80,ESE,103,0.0,0.0,51,0.00,,---,0.00,VWS V14.00,2013-08-30 01:42:00,
2013-08-29 20:43:00,74.9,55.6,29.80,ESE,103,0.0,0.0,51,0.00,,---,0.00,VWS V14.00,2013-08-30 01:43:00,
2013-08-29 20:44:00,74.7,54.8,29.81,ESE,103,0.0,0.0,50,0.00,,---,0.00,VWS V14.00,2013-08-30 01:44:00,
2013-08-29 20:45:00,74.7,55.9,29.81,ESE,103,0.0,0.0,52,0.00,,---,0.00,VWS V14.00,2013-08-30 01:45:00,
2013-08-29 20:48:00,74.4,55.7,29.81,ESE,103,0.0,0.0,52,0.00,,---,0.00,VWS V14.00,2013-08-30 01:48:00,
2013-08-29 20:49:00,74.4,56.2,29.81,ESE,103,0.0,0.0,53,0.00,,---,0.00,VWS V14.00,2013-08-30 01:49:00,
2013-08-29 20:51:00,74.2,56.0,29.81,ESE,103,0.0,0.0,53,0.00,,---,0.00,VWS V14.00,2013-08-30 01:51:00,
2013-08-29 20:53:00,74.0,56.3,29.81,ESE,103,0.0,0.0,54,0.00,,---,0.00,VWS V14.00,2013-08-30 01:53:00,
2013-08-29 20:54:00,74.0,56.3,29.81,ESE,103,0.0,0.0,54,0.00,,---,0.00,VWS V14.00,2013-08-30 01:54:00,
2013-08-29 20:55:00,73.9,57.2,29.81,ESE,103,0.0,0.0,56,0.00,,---,0.00,VWS V14.00,2013-08-30 01:55:00,
2013-08-29 20:57:00,73.7,58.0,29.81,ESE,103,0.0,0.0,58,0.00,,---,0.00,VWS V14.00,2013-08-30 01:57:00,
2013-08-29 20:58:00,73.5,58.3,29.81,ESE,103,0.0,0.0,59,0.00,,---,0.00,VWS V14.00,2013-08-30 01:58:00,
2013-08-29 20:59:00,73.3,57.2,29.80,ESE,103,0.0,0.0,57,0.00,,---,0.00,VWS V14.00,2013-08-30 01:59:00,
2013-08-29 21:00:00,73.2,56.6,29.80,ESE,103,0.0,0.0,56,0.00,,---,0.00,VWS V14.00,2013-08-30 02:00:00,
2013-08-29 21:02:00,72.8,56.7,29.80,ESE,103,0.0,0.0,57,0.00,,---,0.00,VWS V14.00,2013-08-30 02:02:00,
2013-08-29 21:03:00,72.8,56.7,29.80,ESE,103,0.0,0.0,57,0.00,,---,0.00,VWS V14.00,2013-08-30 02:03:00,
2013-08-29 21:05:00,72.5,56.4,29.80,ESE,103,0.0,0.0,57,0.00,,---,0.00,VWS V14.00,2013-08-30 02:05:00,
2013-08-29 21:06:00,72.5,56.4,29.80,ESE,103,0.0,0.0,57,0.00,,---,0.00,VWS V14.00,2013-08-30 02:06:00,
2013-08-29 21:07:00,72.3,56.2,29.80,ESE,103,0.0,0.0,57,0.00,,---,0.00,VWS V14.00,2013-08-30 02:07:00,
2013-08-29 21:08:00,72.3,56.7,29.80,ESE,103,0.0,0.0,58,0.00,,---,0.00,VWS V14.00,2013-08-30 02:08:00,
2013-08-29 21:10:00,72.0,57.4,29.80,ESE,103,0.0,0.0,60,0.00,,---,0.00,VWS V14.00,2013-08-30 02:10:00,
2013-08-29 21:11:00,72.0,56.9,29.80,ESE,103,0.0,0.0,59,0.00,,---,0.00,VWS V14.00,2013-08-30 02:11:00,
2013-08-29 21:12:00,71.8,56.7,29.80,ESE,103,0.0,0.0,59,0.00,,---,0.00,VWS V14.00,2013-08-30 02:12:00,
2013-08-29 21:13:00,71.8,57.2,29.80,ESE,103,0.0,0.0,60,0.00,,---,0.00,VWS V14.00,2013-08-30 02:13:00,
2013-08-29 21:15:00,71.6,56.1,29.78,ESE,103,0.0,0.0,58,0.00,,---,0.00,VWS V14.00,2013-08-30 02:15:00,
2013-08-29 21:17:00,71.5,56.9,29.78,ESE,103,0.0,0.0,60,0.00,,---,0.00,VWS V14.00,2013-08-30 02:17:00,
2013-08-29 21:18:00,71.3,57.2,29.78,ESE,103,0.0,0.0,61,0.00,,---,0.00,VWS V14.00,2013-08-30 02:18:00,
2013-08-29 21:19:00,71.3,57.2,29.78,ESE,103,0.0,0.0,61,0.00,,---,0.00,VWS V14.00,2013-08-30 02:19:00,
2013-08-29 21:20:00,71.1,57.0,29.78,ESE,103,0.0,0.0,61,0.00,,---,0.00,VWS V14.00,2013-08-30 02:20:00,
2013-08-29 21:22:00,70.9,56.3,29.78,ESE,103,0.0,0.0,60,0.00,,---,0.00,VWS V14.00,2013-08-30 02:22:00,
2013-08-29 21:23:00,70.8,56.7,29.78,ESE,103,0.0,0.0,61,0.00,,---,0.00,VWS V14.00,2013-08-30 02:23:00,
2013-08-29 21:24:00,70.8,56.7,29.78,ESE,103,0.0,0.0,61,0.00,,---,0.00,VWS V14.00,2013-08-30 02:24:00,
2013-08-29 21:25:00,70.8,56.7,29.78,ESE,103,0.0,0.0,61,0.00,,---,0.00,VWS V14.00,2013-08-30 02:25:00,
2013-08-29 21:27:00,70.6,57.0,29.78,ESE,103,0.0,0.0,62,0.00,,---,0.00,VWS V14.00,2013-08-30 02:27:00,
2013-08-29 21:28:00,70.4,56.8,29.79,ESE,103,0.0,0.0,62,0.00,,---,0.00,VWS V14.00,2013-08-30 02:28:00,
2013-08-29 21:30:00,70.3,56.7,29.79,ESE,103,0.0,0.0,62,0.00,,---,0.00,VWS V14.00,2013-08-30 02:30:00,
2013-08-29 21:32:00,70.1,56.5,29.79,ESE,103,0.0,0.0,62,0.00,,---,0.00,VWS V14.00,2013-08-30 02:32:00,
2013-08-29 21:33:00,69.9,55.8,29.79,ESE,103,0.0,0.0,61,0.00,,---,0.00,VWS V14.00,2013-08-30 02:33:00,
2013-08-29 21:35:00,69.8,56.7,29.79,ESE,103,0.0,0.0,63,0.00,,---,0.00,VWS V14.00,2013-08-30 02:35:00,
2013-08-29 21:36:00,69.8,56.7,29.79,ESE,103,0.0,0.0,63,0.00,,---,0.00,VWS V14.00,2013-08-30 02:36:00,
2013-08-29 21:38:00,69.6,56.0,29.79,ESE,103,0.0,0.0,62,0.00,,---,0.00,VWS V14.00,2013-08-30 02:38:00,
2013-08-29 21:40:00,69.6,55.1,29.79,ESE,103,0.0,0.0,60,0.00,,---,0.00,VWS V14.00,2013-08-30 02:40:00,
2013-08-29 21:41:00,69.6,55.1,29.79,ESE,103,0.0,0.0,60,0.00,,---,0.00,VWS V14.00,2013-08-30 02:41:00,
2013-08-29 21:43:00,69.4,56.7,29.79,ESE,103,0.0,0.0,64,0.00,,---,0.00,VWS V14.00,2013-08-30 02:43:00,
2013-08-29 21:44:00,69.3,57.0,29.81,ESE,103,0.0,0.0,65,0.00,,---,0.00,VWS V14.00,2013-08-30 02:44:00,
2013-08-29 21:45:00,69.3,57.0,29.81,ESE,103,0.0,0.0,65,0.00,,---,0.00,VWS V14.00,2013-08-30 02:45:00,
2013-08-29 21:47:00,68.9,56.7,29.81,ESE,103,0.0,0.0,65,0.00,,---,0.00,VWS V14.00,2013-08-30 02:47:00,
2013-08-29 21:48:00,68.9,55.8,29.81,ESE,103,0.0,0.0,63,0.00,,---,0.00,VWS V14.00,2013-08-30 02:48:00,
2013-08-29 21:49:00,68.9,55.8,29.81,ESE,103,0.0,0.0,63,0.00,,---,0.00,VWS V14.00,2013-08-30 02:49:00,
2013-08-29 21:50:00,68.9,55.8,29.81,ESE,103,0.0,0.0,63,0.00,,---,0.00,VWS V14.00,2013-08-30 02:50:00,
2013-08-29 21:54:00,68.9,55.8,29.81,ESE,103,0.0,0.0,63,0.00,,---,0.00,VWS V14.00,2013-08-30 02:54:00,
2013-08-29 21:55:00,68.9,55.8,29.81,ESE,103,0.0,0.0,63,0.00,,---,0.00,VWS V14.00,2013-08-30 02:55:00,
2013-08-29 21:56:00,68.9,55.4,29.81,ESE,103,0.0,0.0,62,0.00,,---,0.00,VWS V14.00,2013-08-30 02:56:00,
2013-08-29 21:59:00,68.9,54.9,29.82,ESE,103,0.0,0.0,61,0.00,,---,0.00,VWS V14.00,2013-08-30 02:59:00,
2013-08-29 22:00:00,68.9,55.4,29.82,ESE,103,0.0,0.0,62,0.00,,---,0.00,VWS V14.00,2013-08-30 03:00:00,
2013-08-29 22:01:00,68.9,55.4,29.82,ESE,103,0.0,0.0,62,0.00,,---,0.00,VWS V14.00,2013-08-30 03:01:00,
2013-08-29 22:04:00,68.6,55.5,29.82,ESE,103,0.0,0.0,63,0.00,,---,0.00,VWS V14.00,2013-08-30 03:04:00,
2013-08-29 22:05:00,68.6,55.5,29.82,ESE,103,0.0,0.0,63,0.00,,---,0.00,VWS V14.00,2013-08-30 03:05:00,
2013-08-29 22:06:00,68.4,55.3,29.82,ESE,103,0.0,0.0,63,0.00,,---,0.00,VWS V14.00,2013-08-30 03:06:00,
2013-08-29 22:07:00,68.3,56.1,29.82,ESE,103,0.0,0.0,65,0.00,,---,0.00,VWS V14.00,2013-08-30 03:07:00,